NOAA Web Site Link Tides and Currents Home Page Transparent placeholder image

PORTS® Data Listing: 8465705 New Haven, CT

CO-OPS RAW PORTS DATA

************************      PRELIMINARY DATA      ************************** 

     THIS RAW DATA HAS NOT BEEN SUBJECT TO THE NATIONAL OCEAN SERVICE'S        
     QUALITY CONTROL OR QUALITY ASSURANCE PROCEDURES AND DOES NOT MEET         
     THE CRITERIA AND STANDARDS OF OFFICIAL NATIONAL OCEAN SERVICE             
     DATA.  IT IS RELEASED FOR LIMITED PUBLIC USE AS PRELIMINARY DATA TO       
     BE USED ONLY WITH APPROPRIATE CAUTION.                                    

************************      PRELIMINARY DATA      ************************** 


       CD   -   Calendar date
       T    -   Time
       TZ   -   Timezone
       PW   -   Predicted water level (feet above MLLW)
       OW   -   Observed water level (feet above MLLW)
       WS   -   Wind speed (knots)
       WD   -   Wind direction (degrees true)
       WG   -   Wind gust (knots)
       AT   -   Air temperature (degrees farenheit)
       WT   -   Water temperature (degrees farenheit)
       AP   -   Air pressure (millibars)
       SA   -   Salinty (PSU - Practical Salinity Units)
       SG   -   Specific gravity
       RH   -   Relative humidity
       AG   -   Air gap (feet)
       VI   -   Visibility (nautical miles)

       ** NOTE **
       A variable that has its data fields filled with "9"s, indicates that
       data was not collected for that sample period.
       **********


STATION NAME: New Haven (8465705)
****************************************************************************************************
    CD       T    TZ    PW     OW    WS   WD   WG    AT    WT    AP    SA    SG     RH    AG   VI
****************************************************************************************************
2019/08/15 20:18 EDT    2.40   2.86 -999 -999 -999 -99.9 -99.9 -999.9 -9.9 -9.999 -99.9 -99.99 -9.99
2019/08/15 20:24 EDT    2.53   3.00 -999 -999 -999 -99.9 -99.9 -999.9 -9.9 -9.999 -99.9 -99.99 -9.99
2019/08/15 20:30 EDT    2.67   3.16 -999 -999 -999 -99.9 -99.9 -999.9 -9.9 -9.999 -99.9 -99.99 -9.99
2019/08/15 20:36 EDT    2.80   3.32 -999 -999 -999 -99.9 -99.9 -999.9 -9.9 -9.999 -99.9 -99.99 -9.99
2019/08/15 20:42 EDT    2.94   3.47 -999 -999 -999 -99.9 -99.9 -999.9 -9.9 -9.999 -99.9 -99.99 -9.99
2019/08/15 20:48 EDT    3.08   3.62 -999 -999 -999 -99.9 -99.9 -999.9 -9.9 -9.999 -99.9 -99.99 -9.99
2019/08/15 20:54 EDT    3.22   3.78 -999 -999 -999 -99.9 -99.9 -999.9 -9.9 -9.999 -99.9 -99.99 -9.99
2019/08/15 21:00 EDT    3.36   3.90 -999 -999 -999 -99.9 -99.9 -999.9 -9.9 -9.999 -99.9 -99.99 -9.99
2019/08/15 21:06 EDT    3.50   4.03 -999 -999 -999 -99.9 -99.9 -999.9 -9.9 -9.999 -99.9 -99.99 -9.99
2019/08/15 21:12 EDT    3.64   4.15 -999 -999 -999 -99.9 -99.9 -999.9 -9.9 -9.999 -99.9 -99.99 -9.99
2019/08/15 21:18 EDT    3.78   4.29 -999 -999 -999 -99.9 -99.9 -999.9 -9.9 -9.999 -99.9 -99.99 -9.99
2019/08/15 21:24 EDT    3.91   4.44 -999 -999 -999 -99.9 -99.9 -999.9 -9.9 -9.999 -99.9 -99.99 -9.99
2019/08/15 21:30 EDT    4.05   4.61 -999 -999 -999 -99.9 -99.9 -999.9 -9.9 -9.999 -99.9 -99.99 -9.99
2019/08/15 21:36 EDT    4.19   4.76 -999 -999 -999 -99.9 -99.9 -999.9 -9.9 -9.999 -99.9 -99.99 -9.99
2019/08/15 21:42 EDT    4.33   4.91 -999 -999 -999 -99.9 -99.9 -999.9 -9.9 -9.999 -99.9 -99.99 -9.99
2019/08/15 21:48 EDT    4.47   5.03 -999 -999 -999 -99.9 -99.9 -999.9 -9.9 -9.999 -99.9 -99.99 -9.99
2019/08/15 21:54 EDT    4.61   5.14 -999 -999 -999 -99.9 -99.9 -999.9 -9.9 -9.999 -99.9 -99.99 -9.99
2019/08/15 22:00 EDT    4.75   5.26 -999 -999 -999 -99.9 -99.9 -999.9 -9.9 -9.999 -99.9 -99.99 -9.99
2019/08/15 22:06 EDT    4.88   5.37 -999 -999 -999 -99.9 -99.9 -999.9 -9.9 -9.999 -99.9 -99.99 -9.99
2019/08/15 22:12 EDT    5.02   5.52 -999 -999 -999 -99.9 -99.9 -999.9 -9.9 -9.999 -99.9 -99.99 -9.99
2019/08/15 22:18 EDT    5.15   5.67 -999 -999 -999 -99.9 -99.9 -999.9 -9.9 -9.999 -99.9 -99.99 -9.99
2019/08/15 22:24 EDT    5.28   5.83 -999 -999 -999 -99.9 -99.9 -999.9 -9.9 -9.999 -99.9 -99.99 -9.99
2019/08/15 22:30 EDT    5.41   5.97 -999 -999 -999 -99.9 -99.9 -999.9 -9.9 -9.999 -99.9 -99.99 -9.99
2019/08/15 22:36 EDT    5.53   6.10 -999 -999 -999 -99.9 -99.9 -999.9 -9.9 -9.999 -99.9 -99.99 -9.99
2019/08/15 22:42 EDT    5.65   6.21 -999 -999 -999 -99.9 -99.9 -999.9 -9.9 -9.999 -99.9 -99.99 -9.99
2019/08/15 22:48 EDT    5.77   6.32 -999 -999 -999 -99.9 -99.9 -999.9 -9.9 -9.999 -99.9 -99.99 -9.99
2019/08/15 22:54 EDT    5.88   6.42 -999 -999 -999 -99.9 -99.9 -999.9 -9.9 -9.999 -99.9 -99.99 -9.99
2019/08/15 23:00 EDT    5.99   6.49 -999 -999 -999 -99.9 -99.9 -999.9 -9.9 -9.999 -99.9 -99.99 -9.99
2019/08/15 23:06 EDT    6.09   6.57 -999 -999 -999 -99.9 -99.9 -999.9 -9.9 -9.999 -99.9 -99.99 -9.99
2019/08/15 23:12 EDT    6.19   6.65 -999 -999 -999 -99.9 -99.9 -999.9 -9.9 -9.999 -99.9 -99.99 -9.99
2019/08/15 23:18 EDT    6.28   6.75 -999 -999 -999 -99.9 -99.9 -999.9 -9.9 -9.999 -99.9 -99.99 -9.99
2019/08/15 23:24 EDT    6.36   6.88 -999 -999 -999 -99.9 -99.9 -999.9 -9.9 -9.999 -99.9 -99.99 -9.99
2019/08/15 23:30 EDT    6.44   7.02 -999 -999 -999 -99.9 -99.9 -999.9 -9.9 -9.999 -99.9 -99.99 -9.99
2019/08/15 23:36 EDT    6.50   7.13 -999 -999 -999 -99.9 -99.9 -999.9 -9.9 -9.999 -99.9 -99.99 -9.99
2019/08/15 23:42 EDT    6.56   7.22 -999 -999 -999 -99.9 -99.9 -999.9 -9.9 -9.999 -99.9 -99.99 -9.99
2019/08/15 23:48 EDT    6.61   7.29 -999 -999 -999 -99.9 -99.9 -999.9 -9.9 -9.999 -99.9 -99.99 -9.99
2019/08/15 23:54 EDT    6.65   7.34 -999 -999 -999 -99.9 -99.9 -999.9 -9.9 -9.999 -99.9 -99.99 -9.99
2019/08/16 00:00 EDT    6.68   7.34 -999 -999 -999 -99.9 -99.9 -999.9 -9.9 -9.999 -99.9 -99.99 -9.99
2019/08/16 00:06 EDT    6.70   7.34 -999 -999 -999 -99.9 -99.9 -999.9 -9.9 -9.999 -99.9 -99.99 -9.99
2019/08/16 00:12 EDT    6.71   7.33 -999 -999 -999 -99.9 -99.9 -999.9 -9.9 -9.999 -99.9 -99.99 -9.99
2019/08/16 00:18 EDT    6.71   7.36 -999 -999 -999 -99.9 -99.9 -999.9 -9.9 -9.999 -99.9 -99.99 -9.99
2019/08/16 00:24 EDT    6.70   7.43 -999 -999 -999 -99.9 -99.9 -999.9 -9.9 -9.999 -99.9 -99.99 -9.99
2019/08/16 00:30 EDT    6.68   7.47 -999 -999 -999 -99.9 -99.9 -999.9 -9.9 -9.999 -99.9 -99.99 -9.99
2019/08/16 00:36 EDT    6.65   7.46 -999 -999 -999 -99.9 -99.9 -999.9 -9.9 -9.999 -99.9 -99.99 -9.99
2019/08/16 00:42 EDT    6.62   7.42 -999 -999 -999 -99.9 -99.9 -999.9 -9.9 -9.999 -99.9 -99.99 -9.99
2019/08/16 00:48 EDT    6.57   7.39 -999 -999 -999 -99.9 -99.9 -999.9 -9.9 -9.999 -99.9 -99.99 -9.99
2019/08/16 00:54 EDT    6.51   7.35 -999 -999 -999 -99.9 -99.9 -999.9 -9.9 -9.999 -99.9 -99.99 -9.99
2019/08/16 01:00 EDT    6.44   7.25 -999 -999 -999 -99.9 -99.9 -999.9 -9.9 -9.999 -99.9 -99.99 -9.99
2019/08/16 01:06 EDT    6.37   7.14 -999 -999 -999 -99.9 -99.9 -999.9 -9.9 -9.999 -99.9 -99.99 -9.99
2019/08/16 01:12 EDT    6.28   7.05 -999 -999 -999 -99.9 -99.9 -999.9 -9.9 -9.999 -99.9 -99.99 -9.99
2019/08/16 01:18 EDT    6.19   6.98 -999 -999 -999 -99.9 -99.9 -999.9 -9.9 -9.999 -99.9 -99.99 -9.99
2019/08/16 01:24 EDT    6.10   6.88 -999 -999 -999 -99.9 -99.9 -999.9 -9.9 -9.999 -99.9 -99.99 -9.99
2019/08/16 01:30 EDT    5.99   6.78 -999 -999 -999 -99.9 -99.9 -999.9 -9.9 -9.999 -99.9 -99.99 -9.99
2019/08/16 01:36 EDT    5.88   6.68 -999 -999 -999 -99.9 -99.9 -999.9 -9.9 -9.999 -99.9 -99.99 -9.99
2019/08/16 01:42 EDT    5.77   6.59 -999 -999 -999 -99.9 -99.9 -999.9 -9.9 -9.999 -99.9 -99.99 -9.99
2019/08/16 01:48 EDT    5.65   6.48 -999 -999 -999 -99.9 -99.9 -999.9 -9.9 -9.999 -99.9 -99.99 -9.99
2019/08/16 01:54 EDT    5.53   6.37 -999 -999 -999 -99.9 -99.9 -999.9 -9.9 -9.999 -99.9 -99.99 -9.99
2019/08/16 02:00 EDT    5.40   6.25 -999 -999 -999 -99.9 -99.9 -999.9 -9.9 -9.999 -99.9 -99.99 -9.99
2019/08/16 02:06 EDT    5.27   6.11 -999 -999 -999 -99.9 -99.9 -999.9 -9.9 -9.999 -99.9 -99.99 -9.99
2019/08/16 02:12 EDT    5.14   5.97 -999 -999 -999 -99.9 -99.9 -999.9 -9.9 -9.999 -99.9 -99.99 -9.99
2019/08/16 02:18 EDT    5.00   5.86 -999 -999 -999 -99.9 -99.9 -999.9 -9.9 -9.999 -99.9 -99.99 -9.99
2019/08/16 02:24 EDT    4.86   5.71 -999 -999 -999 -99.9 -99.9 -999.9 -9.9 -9.999 -99.9 -99.99 -9.99
2019/08/16 02:30 EDT    4.72   5.54 -999 -999 -999 -99.9 -99.9 -999.9 -9.9 -9.999 -99.9 -99.99 -9.99
2019/08/16 02:36 EDT    4.58   5.35 -999 -999 -999 -99.9 -99.9 -999.9 -9.9 -9.999 -99.9 -99.99 -9.99
2019/08/16 02:42 EDT    4.44   5.18 -999 -999 -999 -99.9 -99.9 -999.9 -9.9 -9.999 -99.9 -99.99 -9.99
2019/08/16 02:48 EDT    4.30   5.02 -999 -999 -999 -99.9 -99.9 -999.9 -9.9 -9.999 -99.9 -99.99 -9.99
2019/08/16 02:54 EDT    4.16   4.86 -999 -999 -999 -99.9 -99.9 -999.9 -9.9 -9.999 -99.9 -99.99 -9.99
2019/08/16 03:00 EDT    4.01   4.69 -999 -999 -999 -99.9 -99.9 -999.9 -9.9 -9.999 -99.9 -99.99 -9.99
2019/08/16 03:06 EDT    3.87   4.56 -999 -999 -999 -99.9 -99.9 -999.9 -9.9 -9.999 -99.9 -99.99 -9.99
2019/08/16 03:12 EDT    3.72   4.45 -999 -999 -999 -99.9 -99.9 -999.9 -9.9 -9.999 -99.9 -99.99 -9.99
2019/08/16 03:18 EDT    3.58   4.32 -999 -999 -999 -99.9 -99.9 -999.9 -9.9 -9.999 -99.9 -99.99 -9.99
2019/08/16 03:24 EDT    3.44   4.16 -999 -999 -999 -99.9 -99.9 -999.9 -9.9 -9.999 -99.9 -99.99 -9.99
2019/08/16 03:30 EDT    3.29   4.02 -999 -999 -999 -99.9 -99.9 -999.9 -9.9 -9.999 -99.9 -99.99 -9.99
2019/08/16 03:36 EDT    3.15   3.91 -999 -999 -999 -99.9 -99.9 -999.9 -9.9 -9.999 -99.9 -99.99 -9.99
2019/08/16 03:42 EDT    3.01   3.78 -999 -999 -999 -99.9 -99.9 -999.9 -9.9 -9.999 -99.9 -99.99 -9.99
2019/08/16 03:48 EDT    2.86   3.64 -999 -999 -999 -99.9 -99.9 -999.9 -9.9 -9.999 -99.9 -99.99 -9.99
2019/08/16 03:54 EDT    2.72   3.47 -999 -999 -999 -99.9 -99.9 -999.9 -9.9 -9.999 -99.9 -99.99 -9.99
2019/08/16 04:00 EDT    2.58   3.27 -999 -999 -999 -99.9 -99.9 -999.9 -9.9 -9.999 -99.9 -99.99 -9.99
2019/08/16 04:06 EDT    2.44   3.09 -999 -999 -999 -99.9 -99.9 -999.9 -9.9 -9.999 -99.9 -99.99 -9.99
2019/08/16 04:12 EDT    2.30   2.91 -999 -999 -999 -99.9 -99.9 -999.9 -9.9 -9.999 -99.9 -99.99 -9.99
2019/08/16 04:18 EDT    2.16   2.72 -999 -999 -999 -99.9 -99.9 -999.9 -9.9 -9.999 -99.9 -99.99 -9.99
2019/08/16 04:24 EDT    2.02   2.56 -999 -999 -999 -99.9 -99.9 -999.9 -9.9 -9.999 -99.9 -99.99 -9.99
2019/08/16 04:30 EDT    1.88   2.46 -999 -999 -999 -99.9 -99.9 -999.9 -9.9 -9.999 -99.9 -99.99 -9.99
2019/08/16 04:36 EDT    1.75   2.39 -999 -999 -999 -99.9 -99.9 -999.9 -9.9 -9.999 -99.9 -99.99 -9.99
2019/08/16 04:42 EDT    1.62   2.31 -999 -999 -999 -99.9 -99.9 -999.9 -9.9 -9.999 -99.9 -99.99 -9.99
2019/08/16 04:48 EDT    1.49   2.22 -999 -999 -999 -99.9 -99.9 -999.9 -9.9 -9.999 -99.9 -99.99 -9.99
2019/08/16 04:54 EDT    1.36   2.11 -999 -999 -999 -99.9 -99.9 -999.9 -9.9 -9.999 -99.9 -99.99 -9.99
2019/08/16 05:00 EDT    1.24   1.98 -999 -999 -999 -99.9 -99.9 -999.9 -9.9 -9.999 -99.9 -99.99 -9.99
2019/08/16 05:06 EDT    1.12   1.84 -999 -999 -999 -99.9 -99.9 -999.9 -9.9 -9.999 -99.9 -99.99 -9.99
2019/08/16 05:12 EDT    1.01   1.68 -999 -999 -999 -99.9 -99.9 -999.9 -9.9 -9.999 -99.9 -99.99 -9.99
2019/08/16 05:18 EDT    0.90   1.53 -999 -999 -999 -99.9 -99.9 -999.9 -9.9 -9.999 -99.9 -99.99 -9.99
2019/08/16 05:24 EDT    0.80   1.40 -999 -999 -999 -99.9 -99.9 -999.9 -9.9 -9.999 -99.9 -99.99 -9.99
2019/08/16 05:30 EDT    0.71   1.29 -999 -999 -999 -99.9 -99.9 -999.9 -9.9 -9.999 -99.9 -99.99 -9.99
2019/08/16 05:36 EDT    0.62   1.22 -999 -999 -999 -99.9 -99.9 -999.9 -9.9 -9.999 -99.9 -99.99 -9.99
2019/08/16 05:42 EDT    0.54   1.15 -999 -999 -999 -99.9 -99.9 -999.9 -9.9 -9.999 -99.9 -99.99 -9.99
2019/08/16 05:48 EDT    0.47   1.07 -999 -999 -999 -99.9 -99.9 -999.9 -9.9 -9.999 -99.9 -99.99 -9.99
2019/08/16 05:54 EDT    0.40   0.97 -999 -999 -999 -99.9 -99.9 -999.9 -9.9 -9.999 -99.9 -99.99 -9.99
2019/08/16 06:00 EDT    0.35   0.89 -999 -999 -999 -99.9 -99.9 -999.9 -9.9 -9.999 -99.9 -99.99 -9.99
2019/08/16 06:06 EDT    0.30   0.84 -999 -999 -999 -99.9 -99.9 -999.9 -9.9 -9.999 -99.9 -99.99 -9.99
2019/08/16 06:12 EDT    0.26   0.78 -999 -999 -999 -99.9 -99.9 -999.9 -9.9 -9.999 -99.9 -99.99 -9.99
2019/08/16 06:18 EDT    0.24   0.73 -999 -999 -999 -99.9 -99.9 -999.9 -9.9 -9.999 -99.9 -99.99 -9.99
2019/08/16 06:24 EDT    0.22   0.70 -999 -999 -999 -99.9 -99.9 -999.9 -9.9 -9.999 -99.9 -99.99 -9.99
2019/08/16 06:30 EDT    0.21   0.73 -999 -999 -999 -99.9 -99.9 -999.9 -9.9 -9.999 -99.9 -99.99 -9.99
2019/08/16 06:36 EDT    0.21   0.74 -999 -999 -999 -99.9 -99.9 -999.9 -9.9 -9.999 -99.9 -99.99 -9.99
2019/08/16 06:42 EDT    0.23   0.74 -999 -999 -999 -99.9 -99.9 -999.9 -9.9 -9.999 -99.9 -99.99 -9.99
2019/08/16 06:48 EDT    0.25   0.74 -999 -999 -999 -99.9 -99.9 -999.9 -9.9 -9.999 -99.9 -99.99 -9.99
2019/08/16 06:54 EDT    0.28   0.75 -999 -999 -999 -99.9 -99.9 -999.9 -9.9 -9.999 -99.9 -99.99 -9.99
2019/08/16 07:00 EDT    0.32   0.78 -999 -999 -999 -99.9 -99.9 -999.9 -9.9 -9.999 -99.9 -99.99 -9.99
2019/08/16 07:06 EDT    0.38   0.81 -999 -999 -999 -99.9 -99.9 -999.9 -9.9 -9.999 -99.9 -99.99 -9.99
2019/08/16 07:12 EDT    0.44   0.83 -999 -999 -999 -99.9 -99.9 -999.9 -9.9 -9.999 -99.9 -99.99 -9.99
2019/08/16 07:18 EDT    0.50   0.90 -999 -999 -999 -99.9 -99.9 -999.9 -9.9 -9.999 -99.9 -99.99 -9.99
2019/08/16 07:24 EDT    0.58   0.97 -999 -999 -999 -99.9 -99.9 -999.9 -9.9 -9.999 -99.9 -99.99 -9.99
2019/08/16 07:30 EDT    0.66   1.04 -999 -999 -999 -99.9 -99.9 -999.9 -9.9 -9.999 -99.9 -99.99 -9.99
2019/08/16 07:36 EDT    0.76   1.12 -999 -999 -999 -99.9 -99.9 -999.9 -9.9 -9.999 -99.9 -99.99 -9.99
2019/08/16 07:42 EDT    0.85   1.20 -999 -999 -999 -99.9 -99.9 -999.9 -9.9 -9.999 -99.9 -99.99 -9.99
2019/08/16 07:48 EDT    0.96   1.29 -999 -999 -999 -99.9 -99.9 -999.9 -9.9 -9.999 -99.9 -99.99 -9.99
2019/08/16 07:54 EDT    1.07   1.40 -999 -999 -999 -99.9 -99.9 -999.9 -9.9 -9.999 -99.9 -99.99 -9.99
2019/08/16 08:00 EDT    1.18   1.53 -999 -999 -999 -99.9 -99.9 -999.9 -9.9 -9.999 -99.9 -99.99 -9.99
2019/08/16 08:06 EDT    1.30   1.67 -999 -999 -999 -99.9 -99.9 -999.9 -9.9 -9.999 -99.9 -99.99 -9.99
2019/08/16 08:12 EDT    1.42   1.81 -999 -999 -999 -99.9 -99.9 -999.9 -9.9 -9.999 -99.9 -99.99 -9.99
2019/08/16 08:18 EDT    1.55   1.97 -999 -999 -999 -99.9 -99.9 -999.9 -9.9 -9.999 -99.9 -99.99 -9.99
2019/08/16 08:24 EDT    1.68   2.10 -999 -999 -999 -99.9 -99.9 -999.9 -9.9 -9.999 -99.9 -99.99 -9.99
2019/08/16 08:30 EDT    1.81   2.22 -999 -999 -999 -99.9 -99.9 -999.9 -9.9 -9.999 -99.9 -99.99 -9.99
2019/08/16 08:36 EDT    1.94   2.33 -999 -999 -999 -99.9 -99.9 -999.9 -9.9 -9.999 -99.9 -99.99 -9.99
2019/08/16 08:42 EDT    2.08   2.49 -999 -999 -999 -99.9 -99.9 -999.9 -9.9 -9.999 -99.9 -99.99 -9.99
2019/08/16 08:48 EDT    2.22   2.64 -999 -999 -999 -99.9 -99.9 -999.9 -9.9 -9.999 -99.9 -99.99 -9.99
2019/08/16 08:54 EDT    2.36   2.81 -999 -999 -999 -99.9 -99.9 -999.9 -9.9 -9.999 -99.9 -99.99 -9.99
2019/08/16 09:00 EDT    2.50   2.95 -999 -999 -999 -99.9 -99.9 -999.9 -9.9 -9.999 -99.9 -99.99 -9.99
2019/08/16 09:06 EDT    2.64   3.08 -999 -999 -999 -99.9 -99.9 -999.9 -9.9 -9.999 -99.9 -99.99 -9.99
2019/08/16 09:12 EDT    2.78   3.19 -999 -999 -999 -99.9 -99.9 -999.9 -9.9 -9.999 -99.9 -99.99 -9.99
2019/08/16 09:18 EDT    2.92   3.31 -999 -999 -999 -99.9 -99.9 -999.9 -9.9 -9.999 -99.9 -99.99 -9.99
2019/08/16 09:24 EDT    3.06   3.45 -999 -999 -999 -99.9 -99.9 -999.9 -9.9 -9.999 -99.9 -99.99 -9.99
2019/08/16 09:30 EDT    3.20   3.60 -999 -999 -999 -99.9 -99.9 -999.9 -9.9 -9.999 -99.9 -99.99 -9.99
2019/08/16 09:36 EDT    3.34   3.75 -999 -999 -999 -99.9 -99.9 -999.9 -9.9 -9.999 -99.9 -99.99 -9.99
2019/08/16 09:42 EDT    3.48   3.91 -999 -999 -999 -99.9 -99.9 -999.9 -9.9 -9.999 -99.9 -99.99 -9.99
2019/08/16 09:48 EDT    3.63   4.09 -999 -999 -999 -99.9 -99.9 -999.9 -9.9 -9.999 -99.9 -99.99 -9.99
2019/08/16 09:54 EDT    3.77   4.25 -999 -999 -999 -99.9 -99.9 -999.9 -9.9 -9.999 -99.9 -99.99 -9.99
2019/08/16 10:00 EDT    3.91   4.38 -999 -999 -999 -99.9 -99.9 -999.9 -9.9 -9.999 -99.9 -99.99 -9.99
2019/08/16 10:06 EDT    4.05   4.51 -999 -999 -999 -99.9 -99.9 -999.9 -9.9 -9.999 -99.9 -99.99 -9.99
2019/08/16 10:12 EDT    4.19   4.61 -999 -999 -999 -99.9 -99.9 -999.9 -9.9 -9.999 -99.9 -99.99 -9.99
2019/08/16 10:18 EDT    4.33   4.73 -999 -999 -999 -99.9 -99.9 -999.9 -9.9 -9.999 -99.9 -99.99 -9.99
2019/08/16 10:24 EDT    4.47   4.85 -999 -999 -999 -99.9 -99.9 -999.9 -9.9 -9.999 -99.9 -99.99 -9.99
2019/08/16 10:30 EDT    4.61   4.99 -999 -999 -999 -99.9 -99.9 -999.9 -9.9 -9.999 -99.9 -99.99 -9.99
2019/08/16 10:36 EDT    4.74   5.14 -999 -999 -999 -99.9 -99.9 -999.9 -9.9 -9.999 -99.9 -99.99 -9.99
2019/08/16 10:42 EDT    4.88   5.28 -999 -999 -999 -99.9 -99.9 -999.9 -9.9 -9.999 -99.9 -99.99 -9.99
2019/08/16 10:48 EDT    5.01   5.42 -999 -999 -999 -99.9 -99.9 -999.9 -9.9 -9.999 -99.9 -99.99 -9.99
2019/08/16 10:54 EDT    5.14   5.53 -999 -999 -999 -99.9 -99.9 -999.9 -9.9 -9.999 -99.9 -99.99 -9.99
2019/08/16 11:00 EDT    5.26   5.66 -999 -999 -999 -99.9 -99.9 -999.9 -9.9 -9.999 -99.9 -99.99 -9.99
2019/08/16 11:06 EDT    5.39   5.79 -999 -999 -999 -99.9 -99.9 -999.9 -9.9 -9.999 -99.9 -99.99 -9.99
2019/08/16 11:12 EDT    5.51   5.91 -999 -999 -999 -99.9 -99.9 -999.9 -9.9 -9.999 -99.9 -99.99 -9.99
2019/08/16 11:18 EDT    5.62   6.03 -999 -999 -999 -99.9 -99.9 -999.9 -9.9 -9.999 -99.9 -99.99 -9.99
2019/08/16 11:24 EDT    5.73   6.14 -999 -999 -999 -99.9 -99.9 -999.9 -9.9 -9.999 -99.9 -99.99 -9.99
2019/08/16 11:30 EDT    5.83   6.25 -999 -999 -999 -99.9 -99.9 -999.9 -9.9 -9.999 -99.9 -99.99 -9.99
2019/08/16 11:36 EDT    5.93   6.33 -999 -999 -999 -99.9 -99.9 -999.9 -9.9 -9.999 -99.9 -99.99 -9.99
2019/08/16 11:42 EDT    6.03   6.41 -999 -999 -999 -99.9 -99.9 -999.9 -9.9 -9.999 -99.9 -99.99 -9.99
2019/08/16 11:48 EDT    6.11   6.51 -999 -999 -999 -99.9 -99.9 -999.9 -9.9 -9.999 -99.9 -99.99 -9.99
2019/08/16 11:54 EDT    6.19   6.59 -999 -999 -999 -99.9 -99.9 -999.9 -9.9 -9.999 -99.9 -99.99 -9.99
2019/08/16 12:00 EDT    6.26   6.68 -999 -999 -999 -99.9 -99.9 -999.9 -9.9 -9.999 -99.9 -99.99 -9.99
2019/08/16 12:06 EDT    6.32   6.77 -999 -999 -999 -99.9 -99.9 -999.9 -9.9 -9.999 -99.9 -99.99 -9.99
2019/08/16 12:12 EDT    6.37   6.87 -999 -999 -999 -99.9 -99.9 -999.9 -9.9 -9.999 -99.9 -99.99 -9.99
2019/08/16 12:18 EDT    6.41   6.99 -999 -999 -999 -99.9 -99.9 -999.9 -9.9 -9.999 -99.9 -99.99 -9.99
2019/08/16 12:24 EDT    6.45   7.06 -999 -999 -999 -99.9 -99.9 -999.9 -9.9 -9.999 -99.9 -99.99 -9.99
2019/08/16 12:30 EDT    6.47   7.08 -999 -999 -999 -99.9 -99.9 -999.9 -9.9 -9.999 -99.9 -99.99 -9.99
2019/08/16 12:36 EDT    6.48   7.11 -999 -999 -999 -99.9 -99.9 -999.9 -9.9 -9.999 -99.9 -99.99 -9.99
2019/08/16 12:42 EDT    6.49   7.11 -999 -999 -999 -99.9 -99.9 -999.9 -9.9 -9.999 -99.9 -99.99 -9.99
2019/08/16 12:48 EDT    6.48   7.11 -999 -999 -999 -99.9 -99.9 -999.9 -9.9 -9.999 -99.9 -99.99 -9.99
2019/08/16 12:54 EDT    6.47   7.10 -999 -999 -999 -99.9 -99.9 -999.9 -9.9 -9.999 -99.9 -99.99 -9.99
2019/08/16 13:00 EDT    6.44   7.09 -999 -999 -999 -99.9 -99.9 -999.9 -9.9 -9.999 -99.9 -99.99 -9.99
2019/08/16 13:06 EDT    6.41   7.07 -999 -999 -999 -99.9 -99.9 -999.9 -9.9 -9.999 -99.9 -99.99 -9.99
2019/08/16 13:12 EDT    6.36   7.05 -999 -999 -999 -99.9 -99.9 -999.9 -9.9 -9.999 -99.9 -99.99 -9.99
2019/08/16 13:18 EDT    6.31   6.99 -999 -999 -999 -99.9 -99.9 -999.9 -9.9 -9.999 -99.9 -99.99 -9.99
2019/08/16 13:24 EDT    6.25   6.94 -999 -999 -999 -99.9 -99.9 -999.9 -9.9 -9.999 -99.9 -99.99 -9.99
2019/08/16 13:30 EDT    6.18   6.85 -999 -999 -999 -99.9 -99.9 -999.9 -9.9 -9.999 -99.9 -99.99 -9.99
2019/08/16 13:36 EDT    6.10   6.76 -999 -999 -999 -99.9 -99.9 -999.9 -9.9 -9.999 -99.9 -99.99 -9.99
2019/08/16 13:42 EDT    6.01   6.69 -999 -999 -999 -99.9 -99.9 -999.9 -9.9 -9.999 -99.9 -99.99 -9.99
2019/08/16 13:48 EDT    5.92   6.62 -999 -999 -999 -99.9 -99.9 -999.9 -9.9 -9.999 -99.9 -99.99 -9.99
2019/08/16 13:54 EDT    5.82   6.54 -999 -999 -999 -99.9 -99.9 -999.9 -9.9 -9.999 -99.9 -99.99 -9.99
2019/08/16 14:00 EDT    5.72   6.45 -999 -999 -999 -99.9 -99.9 -999.9 -9.9 -9.999 -99.9 -99.99 -9.99
2019/08/16 14:06 EDT    5.61   6.34 -999 -999 -999 -99.9 -99.9 -999.9 -9.9 -9.999 -99.9 -99.99 -9.99
2019/08/16 14:12 EDT    5.49   6.21 -999 -999 -999 -99.9 -99.9 -999.9 -9.9 -9.999 -99.9 -99.99 -9.99
2019/08/16 14:18 EDT    5.38   6.09 -999 -999 -999 -99.9 -99.9 -999.9 -9.9 -9.999 -99.9 -99.99 -9.99
2019/08/16 14:24 EDT    5.25   5.96 -999 -999 -999 -99.9 -99.9 -999.9 -9.9 -9.999 -99.9 -99.99 -9.99
2019/08/16 14:30 EDT    5.13   5.84 -999 -999 -999 -99.9 -99.9 -999.9 -9.9 -9.999 -99.9 -99.99 -9.99
2019/08/16 14:36 EDT    5.00   5.74 -999 -999 -999 -99.9 -99.9 -999.9 -9.9 -9.999 -99.9 -99.99 -9.99
2019/08/16 14:42 EDT    4.87   5.62 -999 -999 -999 -99.9 -99.9 -999.9 -9.9 -9.999 -99.9 -99.99 -9.99
2019/08/16 14:48 EDT    4.74   5.49 -999 -999 -999 -99.9 -99.9 -999.9 -9.9 -9.999 -99.9 -99.99 -9.99
2019/08/16 14:54 EDT    4.61   5.35 -999 -999 -999 -99.9 -99.9 -999.9 -9.9 -9.999 -99.9 -99.99 -9.99
2019/08/16 15:00 EDT    4.48   5.20 -999 -999 -999 -99.9 -99.9 -999.9 -9.9 -9.999 -99.9 -99.99 -9.99
2019/08/16 15:06 EDT    4.34   5.05 -999 -999 -999 -99.9 -99.9 -999.9 -9.9 -9.999 -99.9 -99.99 -9.99
2019/08/16 15:12 EDT    4.21   4.89 -999 -999 -999 -99.9 -99.9 -999.9 -9.9 -9.999 -99.9 -99.99 -9.99
2019/08/16 15:18 EDT    4.07   4.72 -999 -999 -999 -99.9 -99.9 -999.9 -9.9 -9.999 -99.9 -99.99 -9.99
2019/08/16 15:24 EDT    3.94   4.56 -999 -999 -999 -99.9 -99.9 -999.9 -9.9 -9.999 -99.9 -99.99 -9.99
2019/08/16 15:30 EDT    3.80   4.44 -999 -999 -999 -99.9 -99.9 -999.9 -9.9 -9.999 -99.9 -99.99 -9.99
2019/08/16 15:36 EDT    3.67   4.32 -999 -999 -999 -99.9 -99.9 -999.9 -9.9 -9.999 -99.9 -99.99 -9.99
2019/08/16 15:42 EDT    3.53   4.20 -999 -999 -999 -99.9 -99.9 -999.9 -9.9 -9.999 -99.9 -99.99 -9.99
2019/08/16 15:48 EDT    3.40   4.09 -999 -999 -999 -99.9 -99.9 -999.9 -9.9 -9.999 -99.9 -99.99 -9.99
2019/08/16 15:54 EDT    3.27   3.95 -999 -999 -999 -99.9 -99.9 -999.9 -9.9 -9.999 -99.9 -99.99 -9.99
2019/08/16 16:00 EDT    3.13   3.81 -999 -999 -999 -99.9 -99.9 -999.9 -9.9 -9.999 -99.9 -99.99 -9.99
2019/08/16 16:06 EDT    3.00   3.66 -999 -999 -999 -99.9 -99.9 -999.9 -9.9 -9.999 -99.9 -99.99 -9.99
2019/08/16 16:12 EDT    2.87   3.50 -999 -999 -999 -99.9 -99.9 -999.9 -9.9 -9.999 -99.9 -99.99 -9.99
2019/08/16 16:18 EDT    2.74   3.34 -999 -999 -999 -99.9 -99.9 -999.9 -9.9 -9.999 -99.9 -99.99 -9.99
2019/08/16 16:24 EDT    2.61   3.18 -999 -999 -999 -99.9 -99.9 -999.9 -9.9 -9.999 -99.9 -99.99 -9.99
2019/08/16 16:30 EDT    2.48   3.02 -999 -999 -999 -99.9 -99.9 -999.9 -9.9 -9.999 -99.9 -99.99 -9.99
2019/08/16 16:36 EDT    2.35   2.89 -999 -999 -999 -99.9 -99.9 -999.9 -9.9 -9.999 -99.9 -99.99 -9.99
2019/08/16 16:42 EDT    2.22   2.76 -999 -999 -999 -99.9 -99.9 -999.9 -9.9 -9.999 -99.9 -99.99 -9.99
2019/08/16 16:48 EDT    2.09   2.64 -999 -999 -999 -99.9 -99.9 -999.9 -9.9 -9.999 -99.9 -99.99 -9.99
2019/08/16 16:54 EDT    1.97   2.54 -999 -999 -999 -99.9 -99.9 -999.9 -9.9 -9.999 -99.9 -99.99 -9.99
2019/08/16 17:00 EDT    1.85   2.43 -999 -999 -999 -99.9 -99.9 -999.9 -9.9 -9.999 -99.9 -99.99 -9.99
2019/08/16 17:06 EDT    1.73   2.33 -999 -999 -999 -99.9 -99.9 -999.9 -9.9 -9.999 -99.9 -99.99 -9.99
2019/08/16 17:12 EDT    1.62   2.21 -999 -999 -999 -99.9 -99.9 -999.9 -9.9 -9.999 -99.9 -99.99 -9.99
2019/08/16 17:18 EDT    1.50   2.11 -999 -999 -999 -99.9 -99.9 -999.9 -9.9 -9.999 -99.9 -99.99 -9.99
2019/08/16 17:24 EDT    1.40   2.00 -999 -999 -999 -99.9 -99.9 -999.9 -9.9 -9.999 -99.9 -99.99 -9.99
2019/08/16 17:30 EDT    1.29   1.88 -999 -999 -999 -99.9 -99.9 -999.9 -9.9 -9.999 -99.9 -99.99 -9.99
2019/08/16 17:36 EDT    1.19   1.78 -999 -999 -999 -99.9 -99.9 -999.9 -9.9 -9.999 -99.9 -99.99 -9.99
2019/08/16 17:42 EDT    1.10   1.65 -999 -999 -999 -99.9 -99.9 -999.9 -9.9 -9.999 -99.9 -99.99 -9.99
2019/08/16 17:48 EDT    1.01   1.53 -999 -999 -999 -99.9 -99.9 -999.9 -9.9 -9.999 -99.9 -99.99 -9.99
2019/08/16 17:54 EDT    0.93   1.41 -999 -999 -999 -99.9 -99.9 -999.9 -9.9 -9.999 -99.9 -99.99 -9.99
2019/08/16 18:00 EDT    0.86   1.32 -999 -999 -999 -99.9 -99.9 -999.9 -9.9 -9.999 -99.9 -99.99 -9.99
2019/08/16 18:06 EDT    0.79   1.24 -999 -999 -999 -99.9 -99.9 -999.9 -9.9 -9.999 -99.9 -99.99 -9.99
2019/08/16 18:12 EDT    0.73   1.18 -999 -999 -999 -99.9 -99.9 -999.9 -9.9 -9.999 -99.9 -99.99 -9.99
2019/08/16 18:18 EDT    0.68   1.11 -999 -999 -999 -99.9 -99.9 -999.9 -9.9 -9.999 -99.9 -99.99 -9.99
2019/08/16 18:24 EDT    0.64   1.07 -999 -999 -999 -99.9 -99.9 -999.9 -9.9 -9.999 -99.9 -99.99 -9.99
2019/08/16 18:30 EDT    0.60   1.03 -999 -999 -999 -99.9 -99.9 -999.9 -9.9 -9.999 -99.9 -99.99 -9.99
2019/08/16 18:36 EDT    0.58   0.99 -999 -999 -999 -99.9 -99.9 -999.9 -9.9 -9.999 -99.9 -99.99 -9.99
2019/08/16 18:42 EDT    0.56   0.99 -999 -999 -999 -99.9 -99.9 -999.9 -9.9 -9.999 -99.9 -99.99 -9.99
2019/08/16 18:48 EDT    0.56   0.99 -999 -999 -999 -99.9 -99.9 -999.9 -9.9 -9.999 -99.9 -99.99 -9.99
2019/08/16 18:54 EDT    0.56   0.97 -999 -999 -999 -99.9 -99.9 -999.9 -9.9 -9.999 -99.9 -99.99 -9.99
2019/08/16 19:00 EDT    0.58   0.94 -999 -999 -999 -99.9 -99.9 -999.9 -9.9 -9.999 -99.9 -99.99 -9.99
2019/08/16 19:06 EDT    0.60   0.94 -999 -999 -999 -99.9 -99.9 -999.9 -9.9 -9.999 -99.9 -99.99 -9.99
2019/08/16 19:12 EDT    0.64   0.95 -999 -999 -999 -99.9 -99.9 -999.9 -9.9 -9.999 -99.9 -99.99 -9.99
2019/08/16 19:18 EDT    0.68   0.98 -999 -999 -999 -99.9 -99.9 -999.9 -9.9 -9.999 -99.9 -99.99 -9.99
2019/08/16 19:24 EDT    0.73   1.03 -999 -999 -999 -99.9 -99.9 -999.9 -9.9 -9.999 -99.9 -99.99 -9.99
2019/08/16 19:30 EDT    0.80   1.08 -999 -999 -999 -99.9 -99.9 -999.9 -9.9 -9.999 -99.9 -99.99 -9.99
2019/08/16 19:36 EDT    0.87   1.15 -999 -999 -999 -99.9 -99.9 -999.9 -9.9 -9.999 -99.9 -99.99 -9.99
2019/08/16 19:42 EDT    0.94   1.23 -999 -999 -999 -99.9 -99.9 -999.9 -9.9 -9.999 -99.9 -99.99 -9.99
2019/08/16 19:48 EDT    1.03   1.34 -999 -999 -999 -99.9 -99.9 -999.9 -9.9 -9.999 -99.9 -99.99 -9.99
2019/08/16 19:54 EDT    1.12   1.46 -999 -999 -999 -99.9 -99.9 -999.9 -9.9 -9.999 -99.9 -99.99 -9.99
2019/08/16 20:00 EDT    1.22   1.55 -999 -999 -999 -99.9 -99.9 -999.9 -9.9 -9.999 -99.9 -99.99 -9.99
2019/08/16 20:06 EDT    1.33   1.66 -999 -999 -999 -99.9 -99.9 -999.9 -9.9 -9.999 -99.9 -99.99 -9.99
2019/08/16 20:12 EDT    1.44   1.75 -999 -999 -999 -99.9 -99.9 -999.9 -9.9 -9.999 -99.9 -99.99 -9.99
2019/08/16 20:18 EDT    1.56   1.84 -999 -999 -999 -99.9 -99.9 -999.9 -9.9 -9.999 -99.9 -99.99 -9.99
2019/08/16 20:24 EDT    1.68   1.96 -999 -999 -999 -99.9 -99.9 -999.9 -9.9 -9.999 -99.9 -99.99 -9.99
2019/08/16 20:30 EDT    1.80   2.08 -999 -999 -999 -99.9 -99.9 -999.9 -9.9 -9.999 -99.9 -99.99 -9.99
2019/08/16 20:36 EDT    1.93   2.19 -999 -999 -999 -99.9 -99.9 -999.9 -9.9 -9.999 -99.9 -99.99 -9.99
2019/08/16 20:42 EDT    2.06   2.31 -999 -999 -999 -99.9 -99.9 -999.9 -9.9 -9.999 -99.9 -99.99 -9.99
2019/08/16 20:48 EDT    2.20   2.44 -999 -999 -999 -99.9 -99.9 -999.9 -9.9 -9.999 -99.9 -99.99 -9.99
2019/08/16 20:54 EDT    2.33   2.58 -999 -999 -999 -99.9 -99.9 -999.9 -9.9 -9.999 -99.9 -99.99 -9.99
2019/08/16 21:00 EDT    2.47   2.73 -999 -999 -999 -99.9 -99.9 -999.9 -9.9 -9.999 -99.9 -99.99 -9.99
2019/08/16 21:06 EDT    2.61   2.89 -999 -999 -999 -99.9 -99.9 -999.9 -9.9 -9.999 -99.9 -99.99 -9.99
2019/08/16 21:12 EDT    2.75   3.05 -999 -999 -999 -99.9 -99.9 -999.9 -9.9 -9.999 -99.9 -99.99 -9.99
2019/08/16 21:18 EDT    2.89   3.21 -999 -999 -999 -99.9 -99.9 -999.9 -9.9 -9.999 -99.9 -99.99 -9.99
2019/08/16 21:24 EDT    3.03   3.37 -999 -999 -999 -99.9 -99.9 -999.9 -9.9 -9.999 -99.9 -99.99 -9.99
2019/08/16 21:30 EDT    3.17   3.52 -999 -999 -999 -99.9 -99.9 -999.9 -9.9 -9.999 -99.9 -99.99 -9.99
2019/08/16 21:36 EDT    3.31   3.68 -999 -999 -999 -99.9 -99.9 -999.9 -9.9 -9.999 -99.9 -99.99 -9.99
2019/08/16 21:42 EDT    3.45   3.82 -999 -999 -999 -99.9 -99.9 -999.9 -9.9 -9.999 -99.9 -99.99 -9.99
2019/08/16 21:48 EDT    3.59   3.95 -999 -999 -999 -99.9 -99.9 -999.9 -9.9 -9.999 -99.9 -99.99 -9.99
2019/08/16 21:54 EDT    3.73   4.07 -999 -999 -999 -99.9 -99.9 -999.9 -9.9 -9.999 -99.9 -99.99 -9.99
2019/08/16 22:00 EDT    3.86   4.19 -999 -999 -999 -99.9 -99.9 -999.9 -9.9 -9.999 -99.9 -99.99 -9.99
2019/08/16 22:06 EDT    4.00   4.31 -999 -999 -999 -99.9 -99.9 -999.9 -9.9 -9.999 -99.9 -99.99 -9.99
2019/08/16 22:12 EDT    4.14   4.46 -999 -999 -999 -99.9 -99.9 -999.9 -9.9 -9.999 -99.9 -99.99 -9.99
2019/08/16 22:18 EDT    4.27   4.61 -999 -999 -999 -99.9 -99.9 -999.9 -9.9 -9.999 -99.9 -99.99 -9.99
2019/08/16 22:24 EDT    4.41   4.75 -999 -999 -999 -99.9 -99.9 -999.9 -9.9 -9.999 -99.9 -99.99 -9.99
2019/08/16 22:30 EDT    4.54   4.89 -999 -999 -999 -99.9 -99.9 -999.9 -9.9 -9.999 -99.9 -99.99 -9.99
2019/08/16 22:36 EDT    4.67   5.05 -999 -999 -999 -99.9 -99.9 -999.9 -9.9 -9.999 -99.9 -99.99 -9.99
2019/08/16 22:42 EDT    4.80   5.22 -999 -999 -999 -99.9 -99.9 -999.9 -9.9 -9.999 -99.9 -99.99 -9.99
2019/08/16 22:48 EDT    4.93   5.39 -999 -999 -999 -99.9 -99.9 -999.9 -9.9 -9.999 -99.9 -99.99 -9.99
2019/08/16 22:54 EDT    5.06   5.53 -999 -999 -999 -99.9 -99.9 -999.9 -9.9 -9.999 -99.9 -99.99 -9.99
2019/08/16 23:00 EDT    5.18   5.64 -999 -999 -999 -99.9 -99.9 -999.9 -9.9 -9.999 -99.9 -99.99 -9.99
2019/08/16 23:06 EDT    5.30   5.75 -999 -999 -999 -99.9 -99.9 -999.9 -9.9 -9.999 -99.9 -99.99 -9.99
2019/08/16 23:12 EDT    5.42   5.83 -999 -999 -999 -99.9 -99.9 -999.9 -9.9 -9.999 -99.9 -99.99 -9.99
2019/08/16 23:18 EDT    5.54   5.91 -999 -999 -999 -99.9 -99.9 -999.9 -9.9 -9.999 -99.9 -99.99 -9.99
2019/08/16 23:24 EDT    5.65   6.01 -999 -999 -999 -99.9 -99.9 -999.9 -9.9 -9.999 -99.9 -99.99 -9.99
2019/08/16 23:30 EDT    5.76   6.12 -999 -999 -999 -99.9 -99.9 -999.9 -9.9 -9.999 -99.9 -99.99 -9.99
2019/08/16 23:36 EDT    5.87   6.26 -999 -999 -999 -99.9 -99.9 -999.9 -9.9 -9.999 -99.9 -99.99 -9.99
2019/08/16 23:42 EDT    5.97   6.37 -999 -999 -999 -99.9 -99.9 -999.9 -9.9 -9.999 -99.9 -99.99 -9.99
2019/08/16 23:48 EDT    6.06   6.49 -999 -999 -999 -99.9 -99.9 -999.9 -9.9 -9.999 -99.9 -99.99 -9.99
2019/08/16 23:54 EDT    6.15   6.58 -999 -999 -999 -99.9 -99.9 -999.9 -9.9 -9.999 -99.9 -99.99 -9.99
2019/08/17 00:00 EDT    6.24   6.68 -999 -999 -999 -99.9 -99.9 -999.9 -9.9 -9.999 -99.9 -99.99 -9.99
2019/08/17 00:06 EDT    6.31   6.78 -999 -999 -999 -99.9 -99.9 -999.9 -9.9 -9.999 -99.9 -99.99 -9.99
2019/08/17 00:12 EDT    6.38   6.86 -999 -999 -999 -99.9 -99.9 -999.9 -9.9 -9.999 -99.9 -99.99 -9.99
2019/08/17 00:18 EDT    6.44   6.92 -999 -999 -999 -99.9 -99.9 -999.9 -9.9 -9.999 -99.9 -99.99 -9.99
2019/08/17 00:24 EDT    6.50   6.98 -999 -999 -999 -99.9 -99.9 -999.9 -9.9 -9.999 -99.9 -99.99 -9.99
2019/08/17 00:30 EDT    6.54   7.02 -999 -999 -999 -99.9 -99.9 -999.9 -9.9 -9.999 -99.9 -99.99 -9.99
2019/08/17 00:36 EDT    6.57   7.07 -999 -999 -999 -99.9 -99.9 -999.9 -9.9 -9.999 -99.9 -99.99 -9.99
2019/08/17 00:42 EDT    6.60   7.13 -999 -999 -999 -99.9 -99.9 -999.9 -9.9 -9.999 -99.9 -99.99 -9.99
2019/08/17 00:48 EDT    6.62   7.18 -999 -999 -999 -99.9 -99.9 -999.9 -9.9 -9.999 -99.9 -99.99 -9.99
2019/08/17 00:54 EDT    6.62   7.21 -999 -999 -999 -99.9 -99.9 -999.9 -9.9 -9.999 -99.9 -99.99 -9.99
2019/08/17 01:00 EDT    6.62   7.23 -999 -999 -999 -99.9 -99.9 -999.9 -9.9 -9.999 -99.9 -99.99 -9.99
2019/08/17 01:06 EDT    6.61   7.24 -999 -999 -999 -99.9 -99.9 -999.9 -9.9 -9.999 -99.9 -99.99 -9.99
2019/08/17 01:12 EDT    6.58   7.25 -999 -999 -999 -99.9 -99.9 -999.9 -9.9 -9.999 -99.9 -99.99 -9.99
2019/08/17 01:18 EDT    6.55   7.23 -999 -999 -999 -99.9 -99.9 -999.9 -9.9 -9.999 -99.9 -99.99 -9.99
2019/08/17 01:24 EDT    6.51   7.19 -999 -999 -999 -99.9 -99.9 -999.9 -9.9 -9.999 -99.9 -99.99 -9.99
2019/08/17 01:30 EDT    6.46   7.13 -999 -999 -999 -99.9 -99.9 -999.9 -9.9 -9.999 -99.9 -99.99 -9.99
2019/08/17 01:36 EDT    6.39   7.06 -999 -999 -999 -99.9 -99.9 -999.9 -9.9 -9.999 -99.9 -99.99 -9.99
2019/08/17 01:42 EDT    6.32   6.99 -999 -999 -999 -99.9 -99.9 -999.9 -9.9 -9.999 -99.9 -99.99 -9.99
2019/08/17 01:48 EDT    6.24   6.91 -999 -999 -999 -99.9 -99.9 -999.9 -9.9 -9.999 -99.9 -99.99 -9.99
2019/08/17 01:54 EDT    6.16   6.82 -999 -999 -999 -99.9 -99.9 -999.9 -9.9 -9.999 -99.9 -99.99 -9.99
2019/08/17 02:00 EDT    6.06   6.73 -999 -999 -999 -99.9 -99.9 -999.9 -9.9 -9.999 -99.9 -99.99 -9.99
2019/08/17 02:06 EDT    5.96   6.65 -999 -999 -999 -99.9 -99.9 -999.9 -9.9 -9.999 -99.9 -99.99 -9.99
2019/08/17 02:12 EDT    5.85   6.57 -999 -999 -999 -99.9 -99.9 -999.9 -9.9 -9.999 -99.9 -99.99 -9.99
2019/08/17 02:18 EDT    5.74   6.48 -999 -999 -999 -99.9 -99.9 -999.9 -9.9 -9.999 -99.9 -99.99 -9.99
2019/08/17 02:24 EDT    5.62   6.38 -999 -999 -999 -99.9 -99.9 -999.9 -9.9 -9.999 -99.9 -99.99 -9.99
2019/08/17 02:30 EDT    5.49   6.25 -999 -999 -999 -99.9 -99.9 -999.9 -9.9 -9.999 -99.9 -99.99 -9.99
2019/08/17 02:36 EDT    5.36   6.12 -999 -999 -999 -99.9 -99.9 -999.9 -9.9 -9.999 -99.9 -99.99 -9.99
2019/08/17 02:42 EDT    5.23   5.98 -999 -999 -999 -99.9 -99.9 -999.9 -9.9 -9.999 -99.9 -99.99 -9.99
2019/08/17 02:48 EDT    5.09   5.85 -999 -999 -999 -99.9 -99.9 -999.9 -9.9 -9.999 -99.9 -99.99 -9.99
2019/08/17 02:54 EDT    4.95   5.72 -999 -999 -999 -99.9 -99.9 -999.9 -9.9 -9.999 -99.9 -99.99 -9.99
2019/08/17 03:00 EDT    4.81   5.58 -999 -999 -999 -99.9 -99.9 -999.9 -9.9 -9.999 -99.9 -99.99 -9.99
2019/08/17 03:06 EDT    4.67   5.43 -999 -999 -999 -99.9 -99.9 -999.9 -9.9 -9.999 -99.9 -99.99 -9.99
2019/08/17 03:12 EDT    4.52   5.27 -999 -999 -999 -99.9 -99.9 -999.9 -9.9 -9.999 -99.9 -99.99 -9.99
2019/08/17 03:18 EDT    4.38   5.12 -999 -999 -999 -99.9 -99.9 -999.9 -9.9 -9.999 -99.9 -99.99 -9.99
2019/08/17 03:24 EDT    4.23   4.97 -999 -999 -999 -99.9 -99.9 -999.9 -9.9 -9.999 -99.9 -99.99 -9.99
2019/08/17 03:30 EDT    4.09   4.83 -999 -999 -999 -99.9 -99.9 -999.9 -9.9 -9.999 -99.9 -99.99 -9.99
2019/08/17 03:36 EDT    3.94   4.68 -999 -999 -999 -99.9 -99.9 -999.9 -9.9 -9.999 -99.9 -99.99 -9.99
2019/08/17 03:42 EDT    3.80   4.52 -999 -999 -999 -99.9 -99.9 -999.9 -9.9 -9.999 -99.9 -99.99 -9.99
2019/08/17 03:48 EDT    3.65   4.37 -999 -999 -999 -99.9 -99.9 -999.9 -9.9 -9.999 -99.9 -99.99 -9.99
2019/08/17 03:54 EDT    3.51   4.23 -999 -999 -999 -99.9 -99.9 -999.9 -9.9 -9.999 -99.9 -99.99 -9.99
2019/08/17 04:00 EDT    3.37   4.10 -999 -999 -999 -99.9 -99.9 -999.9 -9.9 -9.999 -99.9 -99.99 -9.99
2019/08/17 04:06 EDT    3.22   3.95 -999 -999 -999 -99.9 -99.9 -999.9 -9.9 -9.999 -99.9 -99.99 -9.99
2019/08/17 04:12 EDT    3.08   3.79 -999 -999 -999 -99.9 -99.9 -999.9 -9.9 -9.999 -99.9 -99.99 -9.99
2019/08/17 04:18 EDT    2.94   3.63 -999 -999 -999 -99.9 -99.9 -999.9 -9.9 -9.999 -99.9 -99.99 -9.99
2019/08/17 04:24 EDT    2.80   3.47 -999 -999 -999 -99.9 -99.9 -999.9 -9.9 -9.999 -99.9 -99.99 -9.99
2019/08/17 04:30 EDT    2.66   3.33 -999 -999 -999 -99.9 -99.9 -999.9 -9.9 -9.999 -99.9 -99.99 -9.99
2019/08/17 04:36 EDT    2.53   3.19 -999 -999 -999 -99.9 -99.9 -999.9 -9.9 -9.999 -99.9 -99.99 -9.99
2019/08/17 04:42 EDT    2.39   3.06 -999 -999 -999 -99.9 -99.9 -999.9 -9.9 -9.999 -99.9 -99.99 -9.99
2019/08/17 04:48 EDT    2.26   2.94 -999 -999 -999 -99.9 -99.9 -999.9 -9.9 -9.999 -99.9 -99.99 -9.99
2019/08/17 04:54 EDT    2.13   2.81 -999 -999 -999 -99.9 -99.9 -999.9 -9.9 -9.999 -99.9 -99.99 -9.99
2019/08/17 05:00 EDT    2.00   2.68 -999 -999 -999 -99.9 -99.9 -999.9 -9.9 -9.999 -99.9 -99.99 -9.99
2019/08/17 05:06 EDT    1.87   2.55 -999 -999 -999 -99.9 -99.9 -999.9 -9.9 -9.999 -99.9 -99.99 -9.99
2019/08/17 05:12 EDT    1.74   2.44 -999 -999 -999 -99.9 -99.9 -999.9 -9.9 -9.999 -99.9 -99.99 -9.99
2019/08/17 05:18 EDT    1.62   2.34 -999 -999 -999 -99.9 -99.9 -999.9 -9.9 -9.999 -99.9 -99.99 -9.99
2019/08/17 05:24 EDT    1.50   2.22 -999 -999 -999 -99.9 -99.9 -999.9 -9.9 -9.999 -99.9 -99.99 -9.99
2019/08/17 05:30 EDT    1.38   2.09 -999 -999 -999 -99.9 -99.9 -999.9 -9.9 -9.999 -99.9 -99.99 -9.99
2019/08/17 05:36 EDT    1.26   1.96 -999 -999 -999 -99.9 -99.9 -999.9 -9.9 -9.999 -99.9 -99.99 -9.99
2019/08/17 05:42 EDT    1.15   1.83 -999 -999 -999 -99.9 -99.9 -999.9 -9.9 -9.999 -99.9 -99.99 -9.99
2019/08/17 05:48 EDT    1.05   1.71 -999 -999 -999 -99.9 -99.9 -999.9 -9.9 -9.999 -99.9 -99.99 -9.99
2019/08/17 05:54 EDT    0.95   1.59 -999 -999 -999 -99.9 -99.9 -999.9 -9.9 -9.999 -99.9 -99.99 -9.99
2019/08/17 06:00 EDT    0.85   1.45 -999 -999 -999 -99.9 -99.9 -999.9 -9.9 -9.999 -99.9 -99.99 -9.99
2019/08/17 06:06 EDT    0.76   1.33 -999 -999 -999 -99.9 -99.9 -999.9 -9.9 -9.999 -99.9 -99.99 -9.99
2019/08/17 06:12 EDT    0.68   1.22 -999 -999 -999 -99.9 -99.9 -999.9 -9.9 -9.999 -99.9 -99.99 -9.99
2019/08/17 06:18 EDT    0.60   1.13 -999 -999 -999 -99.9 -99.9 -999.9 -9.9 -9.999 -99.9 -99.99 -9.99
2019/08/17 06:24 EDT    0.53   1.06 -999 -999 -999 -99.9 -99.9 -999.9 -9.9 -9.999 -99.9 -99.99 -9.99
2019/08/17 06:30 EDT    0.47   1.00 -999 -999 -999 -99.9 -99.9 -999.9 -9.9 -9.999 -99.9 -99.99 -9.99
2019/08/17 06:36 EDT    0.41   0.95 -999 -999 -999 -99.9 -99.9 -999.9 -9.9 -9.999 -99.9 -99.99 -9.99
2019/08/17 06:42 EDT    0.36   0.90 -999 -999 -999 -99.9 -99.9 -999.9 -9.9 -9.999 -99.9 -99.99 -9.99
2019/08/17 06:48 EDT    0.33   0.85 -999 -999 -999 -99.9 -99.9 -999.9 -9.9 -9.999 -99.9 -99.99 -9.99
2019/08/17 06:54 EDT    0.30   0.79 -999 -999 -999 -99.9 -99.9 -999.9 -9.9 -9.999 -99.9 -99.99 -9.99
2019/08/17 07:00 EDT    0.28   0.74 -999 -999 -999 -99.9 -99.9 -999.9 -9.9 -9.999 -99.9 -99.99 -9.99
2019/08/17 07:06 EDT    0.27   0.70 -999 -999 -999 -99.9 -99.9 -999.9 -9.9 -9.999 -99.9 -99.99 -9.99
2019/08/17 07:12 EDT    0.27   0.68 -999 -999 -999 -99.9 -99.9 -999.9 -9.9 -9.999 -99.9 -99.99 -9.99
2019/08/17 07:18 EDT    0.28   0.68 -999 -999 -999 -99.9 -99.9 -999.9 -9.9 -9.999 -99.9 -99.99 -9.99
2019/08/17 07:24 EDT    0.30   0.69 -999 -999 -999 -99.9 -99.9 -999.9 -9.9 -9.999 -99.9 -99.99 -9.99
2019/08/17 07:30 EDT    0.33   0.73 -999 -999 -999 -99.9 -99.9 -999.9 -9.9 -9.999 -99.9 -99.99 -9.99
2019/08/17 07:36 EDT    0.37   0.78 -999 -999 -999 -99.9 -99.9 -999.9 -9.9 -9.999 -99.9 -99.99 -9.99
2019/08/17 07:42 EDT    0.42   0.82 -999 -999 -999 -99.9 -99.9 -999.9 -9.9 -9.999 -99.9 -99.99 -9.99
2019/08/17 07:48 EDT    0.48   0.87 -999 -999 -999 -99.9 -99.9 -999.9 -9.9 -9.999 -99.9 -99.99 -9.99
2019/08/17 07:54 EDT    0.55   0.93 -999 -999 -999 -99.9 -99.9 -999.9 -9.9 -9.999 -99.9 -99.99 -9.99
2019/08/17 08:00 EDT    0.63   0.98 -999 -999 -999 -99.9 -99.9 -999.9 -9.9 -9.999 -99.9 -99.99 -9.99
2019/08/17 08:06 EDT    0.71   1.06 -999 -999 -999 -99.9 -99.9 -999.9 -9.9 -9.999 -99.9 -99.99 -9.99
2019/08/17 08:12 EDT    0.80   1.16 -999 -999 -999 -99.9 -99.9 -999.9 -9.9 -9.999 -99.9 -99.99 -9.99
2019/08/17 08:18 EDT    0.90   1.25 -999 -999 -999 -99.9 -99.9 -999.9 -9.9 -9.999 -99.9 -99.99 -9.99
2019/08/17 08:24 EDT    1.01   1.36 -999 -999 -999 -99.9 -99.9 -999.9 -9.9 -9.999 -99.9 -99.99 -9.99
2019/08/17 08:30 EDT    1.12   1.47 -999 -999 -999 -99.9 -99.9 -999.9 -9.9 -9.999 -99.9 -99.99 -9.99
2019/08/17 08:36 EDT    1.24   1.59 -999 -999 -999 -99.9 -99.9 -999.9 -9.9 -9.999 -99.9 -99.99 -9.99
2019/08/17 08:42 EDT    1.36   1.72 -999 -999 -999 -99.9 -99.9 -999.9 -9.9 -9.999 -99.9 -99.99 -9.99
2019/08/17 08:48 EDT    1.49   1.84 -999 -999 -999 -99.9 -99.9 -999.9 -9.9 -9.999 -99.9 -99.99 -9.99
2019/08/17 08:54 EDT    1.62   1.99 -999 -999 -999 -99.9 -99.9 -999.9 -9.9 -9.999 -99.9 -99.99 -9.99
2019/08/17 09:00 EDT    1.76   2.14 -999 -999 -999 -99.9 -99.9 -999.9 -9.9 -9.999 -99.9 -99.99 -9.99
2019/08/17 09:06 EDT    1.89   2.29 -999 -999 -999 -99.9 -99.9 -999.9 -9.9 -9.999 -99.9 -99.99 -9.99
2019/08/17 09:12 EDT    2.03   2.43 -999 -999 -999 -99.9 -99.9 -999.9 -9.9 -9.999 -99.9 -99.99 -9.99
2019/08/17 09:18 EDT    2.17   2.59 -999 -999 -999 -99.9 -99.9 -999.9 -9.9 -9.999 -99.9 -99.99 -9.99
2019/08/17 09:24 EDT    2.32   2.75 -999 -999 -999 -99.9 -99.9 -999.9 -9.9 -9.999 -99.9 -99.99 -9.99
2019/08/17 09:30 EDT    2.46   2.90 -999 -999 -999 -99.9 -99.9 -999.9 -9.9 -9.999 -99.9 -99.99 -9.99
2019/08/17 09:36 EDT    2.60   3.02 -999 -999 -999 -99.9 -99.9 -999.9 -9.9 -9.999 -99.9 -99.99 -9.99
2019/08/17 09:42 EDT    2.75   3.13 -999 -999 -999 -99.9 -99.9 -999.9 -9.9 -9.999 -99.9 -99.99 -9.99
2019/08/17 09:48 EDT    2.89   3.25 -999 -999 -999 -99.9 -99.9 -999.9 -9.9 -9.999 -99.9 -99.99 -9.99
2019/08/17 09:54 EDT    3.03   3.37 -999 -999 -999 -99.9 -99.9 -999.9 -9.9 -9.999 -99.9 -99.99 -9.99
2019/08/17 10:00 EDT    3.18   3.52 -999 -999 -999 -99.9 -99.9 -999.9 -9.9 -9.999 -99.9 -99.99 -9.99
2019/08/17 10:06 EDT    3.32   3.70 -999 -999 -999 -99.9 -99.9 -999.9 -9.9 -9.999 -99.9 -99.99 -9.99
2019/08/17 10:12 EDT    3.46   3.89 -999 -999 -999 -99.9 -99.9 -999.9 -9.9 -9.999 -99.9 -99.99 -9.99
2019/08/17 10:18 EDT    3.60   4.06 -999 -999 -999 -99.9 -99.9 -999.9 -9.9 -9.999 -99.9 -99.99 -9.99
2019/08/17 10:24 EDT    3.74   4.23 -999 -999 -999 -99.9 -99.9 -999.9 -9.9 -9.999 -99.9 -99.99 -9.99
2019/08/17 10:30 EDT    3.88   4.40 -999 -999 -999 -99.9 -99.9 -999.9 -9.9 -9.999 -99.9 -99.99 -9.99
2019/08/17 10:36 EDT    4.02   4.54 -999 -999 -999 -99.9 -99.9 -999.9 -9.9 -9.999 -99.9 -99.99 -9.99
2019/08/17 10:42 EDT    4.16   4.67 -999 -999 -999 -99.9 -99.9 -999.9 -9.9 -9.999 -99.9 -99.99 -9.99
2019/08/17 10:48 EDT    4.29   4.78 -999 -999 -999 -99.9 -99.9 -999.9 -9.9 -9.999 -99.9 -99.99 -9.99
2019/08/17 10:54 EDT    4.43   4.88 -999 -999 -999 -99.9 -99.9 -999.9 -9.9 -9.999 -99.9 -99.99 -9.99
2019/08/17 11:00 EDT    4.56   5.01 -999 -999 -999 -99.9 -99.9 -999.9 -9.9 -9.999 -99.9 -99.99 -9.99
2019/08/17 11:06 EDT    4.69   5.12 -999 -999 -999 -99.9 -99.9 -999.9 -9.9 -9.999 -99.9 -99.99 -9.99
2019/08/17 11:12 EDT    4.82   5.24 -999 -999 -999 -99.9 -99.9 -999.9 -9.9 -9.999 -99.9 -99.99 -9.99
2019/08/17 11:18 EDT    4.95   5.35 -999 -999 -999 -99.9 -99.9 -999.9 -9.9 -9.999 -99.9 -99.99 -9.99
2019/08/17 11:24 EDT    5.07   5.48 -999 -999 -999 -99.9 -99.9 -999.9 -9.9 -9.999 -99.9 -99.99 -9.99
2019/08/17 11:30 EDT    5.20 -99.99 -999 -999 -999 -99.9 -99.9 -999.9 -9.9 -9.999 -99.9 -99.99 -9.99
2019/08/17 11:36 EDT    5.32 -99.99 -999 -999 -999 -99.9 -99.9 -999.9 -9.9 -9.999 -99.9 -99.99 -9.99
2019/08/17 11:42 EDT    5.43 -99.99 -999 -999 -999 -99.9 -99.9 -999.9 -9.9 -9.999 -99.9 -99.99 -9.99
2019/08/17 11:48 EDT    5.55 -99.99 -999 -999 -999 -99.9 -99.9 -999.9 -9.9 -9.999 -99.9 -99.99 -9.99
2019/08/17 11:54 EDT    5.66 -99.99 -999 -999 -999 -99.9 -99.9 -999.9 -9.9 -9.999 -99.9 -99.99 -9.99
2019/08/17 12:00 EDT    5.76 -99.99 -999 -999 -999 -99.9 -99.9 -999.9 -9.9 -9.999 -99.9 -99.99 -9.99
2019/08/17 12:06 EDT    5.86 -99.99 -999 -999 -999 -99.9 -99.9 -999.9 -9.9 -9.999 -99.9 -99.99 -9.99
2019/08/17 12:12 EDT    5.96 -99.99 -999 -999 -999 -99.9 -99.9 -999.9 -9.9 -9.999 -99.9 -99.99 -9.99
2019/08/17 12:18 EDT    6.04 -99.99 -999 -999 -999 -99.9 -99.9 -999.9 -9.9 -9.999 -99.9 -99.99 -9.99
2019/08/17 12:24 EDT    6.13 -99.99 -999 -999 -999 -99.9 -99.9 -999.9 -9.9 -9.999 -99.9 -99.99 -9.99
2019/08/17 12:30 EDT    6.20 -99.99 -999 -999 -999 -99.9 -99.9 -999.9 -9.9 -9.999 -99.9 -99.99 -9.99
2019/08/17 12:36 EDT    6.27 -99.99 -999 -999 -999 -99.9 -99.9 -999.9 -9.9 -9.999 -99.9 -99.99 -9.99
2019/08/17 12:42 EDT    6.33 -99.99 -999 -999 -999 -99.9 -99.9 -999.9 -9.9 -9.999 -99.9 -99.99 -9.99
2019/08/17 12:48 EDT    6.39 -99.99 -999 -999 -999 -99.9 -99.9 -999.9 -9.9 -9.999 -99.9 -99.99 -9.99
2019/08/17 12:54 EDT    6.43 -99.99 -999 -999 -999 -99.9 -99.9 -999.9 -9.9 -9.999 -99.9 -99.99 -9.99
2019/08/17 13:00 EDT    6.47 -99.99 -999 -999 -999 -99.9 -99.9 -999.9 -9.9 -9.999 -99.9 -99.99 -9.99
2019/08/17 13:06 EDT    6.50 -99.99 -999 -999 -999 -99.9 -99.9 -999.9 -9.9 -9.999 -99.9 -99.99 -9.99
2019/08/17 13:12 EDT    6.51   7.18 -999 -999 -999 -99.9 -99.9 -999.9 -9.9 -9.999 -99.9 -99.99 -9.99
2019/08/17 13:18 EDT    6.52   7.20 -999 -999 -999 -99.9 -99.9 -999.9 -9.9 -9.999 -99.9 -99.99 -9.99
2019/08/17 13:24 EDT    6.52   7.22 -999 -999 -999 -99.9 -99.9 -999.9 -9.9 -9.999 -99.9 -99.99 -9.99
2019/08/17 13:30 EDT    6.51   7.23 -999 -999 -999 -99.9 -99.9 -999.9 -9.9 -9.999 -99.9 -99.99 -9.99
2019/08/17 13:36 EDT    6.49   7.22 -999 -999 -999 -99.9 -99.9 -999.9 -9.9 -9.999 -99.9 -99.99 -9.99
2019/08/17 13:42 EDT    6.45   7.21 -999 -999 -999 -99.9 -99.9 -999.9 -9.9 -9.999 -99.9 -99.99 -9.99
2019/08/17 13:48 EDT    6.41   7.14 -999 -999 -999 -99.9 -99.9 -999.9 -9.9 -9.999 -99.9 -99.99 -9.99
2019/08/17 13:54 EDT    6.36   7.07 -999 -999 -999 -99.9 -99.9 -999.9 -9.9 -9.999 -99.9 -99.99 -9.99
2019/08/17 14:00 EDT    6.30   7.00 -999 -999 -999 -99.9 -99.9 -999.9 -9.9 -9.999 -99.9 -99.99 -9.99
2019/08/17 14:06 EDT    6.24   6.94 -999 -999 -999 -99.9 -99.9 -999.9 -9.9 -9.999 -99.9 -99.99 -9.99
2019/08/17 14:12 EDT    6.16   6.87 -999 -999 -999 -99.9 -99.9 -999.9 -9.9 -9.999 -99.9 -99.99 -9.99
2019/08/17 14:18 EDT    6.08   6.80 -999 -999 -999 -99.9 -99.9 -999.9 -9.9 -9.999 -99.9 -99.99 -9.99
2019/08/17 14:24 EDT    5.98   6.73 -999 -999 -999 -99.9 -99.9 -999.9 -9.9 -9.999 -99.9 -99.99 -9.99
2019/08/17 14:30 EDT    5.89   6.63 -999 -999 -999 -99.9 -99.9 -999.9 -9.9 -9.999 -99.9 -99.99 -9.99
2019/08/17 14:36 EDT    5.78   6.55 -999 -999 -999 -99.9 -99.9 -999.9 -9.9 -9.999 -99.9 -99.99 -9.99
2019/08/17 14:42 EDT    5.67   6.44 -999 -999 -999 -99.9 -99.9 -999.9 -9.9 -9.999 -99.9 -99.99 -9.99
2019/08/17 14:48 EDT    5.55   6.33 -999 -999 -999 -99.9 -99.9 -999.9 -9.9 -9.999 -99.9 -99.99 -9.99
2019/08/17 14:54 EDT    5.43   6.19 -999 -999 -999 -99.9 -99.9 -999.9 -9.9 -9.999 -99.9 -99.99 -9.99
2019/08/17 15:00 EDT    5.31   6.04 -999 -999 -999 -99.9 -99.9 -999.9 -9.9 -9.999 -99.9 -99.99 -9.99
2019/08/17 15:06 EDT    5.18   5.92 -999 -999 -999 -99.9 -99.9 -999.9 -9.9 -9.999 -99.9 -99.99 -9.99
2019/08/17 15:12 EDT    5.05   5.80 -999 -999 -999 -99.9 -99.9 -999.9 -9.9 -9.999 -99.9 -99.99 -9.99
2019/08/17 15:18 EDT    4.91   5.67 -999 -999 -999 -99.9 -99.9 -999.9 -9.9 -9.999 -99.9 -99.99 -9.99
2019/08/17 15:24 EDT    4.78   5.52 -999 -999 -999 -99.9 -99.9 -999.9 -9.9 -9.999 -99.9 -99.99 -9.99
2019/08/17 15:30 EDT    4.64   5.37 -999 -999 -999 -99.9 -99.9 -999.9 -9.9 -9.999 -99.9 -99.99 -9.99
2019/08/17 15:36 EDT    4.50   5.25 -999 -999 -999 -99.9 -99.9 -999.9 -9.9 -9.999 -99.9 -99.99 -9.99
2019/08/17 15:42 EDT    4.36   5.11 -999 -999 -999 -99.9 -99.9 -999.9 -9.9 -9.999 -99.9 -99.99 -9.99
2019/08/17 15:48 EDT    4.22   4.97 -999 -999 -999 -99.9 -99.9 -999.9 -9.9 -9.999 -99.9 -99.99 -9.99
2019/08/17 15:54 EDT    4.08   4.83 -999 -999 -999 -99.9 -99.9 -999.9 -9.9 -9.999 -99.9 -99.99 -9.99
2019/08/17 16:00 EDT    3.94   4.71 -999 -999 -999 -99.9 -99.9 -999.9 -9.9 -9.999 -99.9 -99.99 -9.99
2019/08/17 16:06 EDT    3.80   4.57 -999 -999 -999 -99.9 -99.9 -999.9 -9.9 -9.999 -99.9 -99.99 -9.99
2019/08/17 16:12 EDT    3.67   4.41 -999 -999 -999 -99.9 -99.9 -999.9 -9.9 -9.999 -99.9 -99.99 -9.99
2019/08/17 16:18 EDT    3.53   4.27 -999 -999 -999 -99.9 -99.9 -999.9 -9.9 -9.999 -99.9 -99.99 -9.99
2019/08/17 16:24 EDT    3.39   4.11 -999 -999 -999 -99.9 -99.9 -999.9 -9.9 -9.999 -99.9 -99.99 -9.99
2019/08/17 16:30 EDT    3.26   3.95 -999 -999 -999 -99.9 -99.9 -999.9 -9.9 -9.999 -99.9 -99.99 -9.99
2019/08/17 16:36 EDT    3.13   3.80 -999 -999 -999 -99.9 -99.9 -999.9 -9.9 -9.999 -99.9 -99.99 -9.99
2019/08/17 16:42 EDT    2.99   3.65 -999 -999 -999 -99.9 -99.9 -999.9 -9.9 -9.999 -99.9 -99.99 -9.99
2019/08/17 16:48 EDT    2.86   3.51 -999 -999 -999 -99.9 -99.9 -999.9 -9.9 -9.999 -99.9 -99.99 -9.99
2019/08/17 16:54 EDT    2.73   3.41 -999 -999 -999 -99.9 -99.9 -999.9 -9.9 -9.999 -99.9 -99.99 -9.99
2019/08/17 17:00 EDT    2.61   3.28 -999 -999 -999 -99.9 -99.9 -999.9 -9.9 -9.999 -99.9 -99.99 -9.99
2019/08/17 17:06 EDT    2.48   3.16 -999 -999 -999 -99.9 -99.9 -999.9 -9.9 -9.999 -99.9 -99.99 -9.99
2019/08/17 17:12 EDT    2.35   3.01 -999 -999 -999 -99.9 -99.9 -999.9 -9.9 -9.999 -99.9 -99.99 -9.99
2019/08/17 17:18 EDT    2.23   2.85 -999 -999 -999 -99.9 -99.9 -999.9 -9.9 -9.999 -99.9 -99.99 -9.99
2019/08/17 17:24 EDT    2.11   2.70 -999 -999 -999 -99.9 -99.9 -999.9 -9.9 -9.999 -99.9 -99.99 -9.99
2019/08/17 17:30 EDT    1.99   2.56 -999 -999 -999 -99.9 -99.9 -999.9 -9.9 -9.999 -99.9 -99.99 -9.99
2019/08/17 17:36 EDT    1.88   2.43 -999 -999 -999 -99.9 -99.9 -999.9 -9.9 -9.999 -99.9 -99.99 -9.99
2019/08/17 17:42 EDT    1.76   2.32 -999 -999 -999 -99.9 -99.9 -999.9 -9.9 -9.999 -99.9 -99.99 -9.99
2019/08/17 17:48 EDT    1.65   2.25 -999 -999 -999 -99.9 -99.9 -999.9 -9.9 -9.999 -99.9 -99.99 -9.99
2019/08/17 17:54 EDT    1.54   2.18 -999 -999 -999 -99.9 -99.9 -999.9 -9.9 -9.999 -99.9 -99.99 -9.99
2019/08/17 18:00 EDT    1.44   2.08 -999 -999 -999 -99.9 -99.9 -999.9 -9.9 -9.999 -99.9 -99.99 -9.99
2019/08/17 18:06 EDT    1.34   1.99 -999 -999 -999 -99.9 -99.9 -999.9 -9.9 -9.999 -99.9 -99.99 -9.99
2019/08/17 18:12 EDT    1.24   1.87 -999 -999 -999 -99.9 -99.9 -999.9 -9.9 -9.999 -99.9 -99.99 -9.99
2019/08/17 18:18 EDT    1.15   1.76 -999 -999 -999 -99.9 -99.9 -999.9 -9.9 -9.999 -99.9 -99.99 -9.99
2019/08/17 18:24 EDT    1.06   1.64 -999 -999 -999 -99.9 -99.9 -999.9 -9.9 -9.999 -99.9 -99.99 -9.99
2019/08/17 18:30 EDT    0.98   1.53 -999 -999 -999 -99.9 -99.9 -999.9 -9.9 -9.999 -99.9 -99.99 -9.99
2019/08/17 18:36 EDT    0.91   1.44 -999 -999 -999 -99.9 -99.9 -999.9 -9.9 -9.999 -99.9 -99.99 -9.99
2019/08/17 18:42 EDT    0.84   1.36 -999 -999 -999 -99.9 -99.9 -999.9 -9.9 -9.999 -99.9 -99.99 -9.99
2019/08/17 18:48 EDT    0.78   1.28 -999 -999 -999 -99.9 -99.9 -999.9 -9.9 -9.999 -99.9 -99.99 -9.99
2019/08/17 18:54 EDT    0.73   1.20 -999 -999 -999 -99.9 -99.9 -999.9 -9.9 -9.999 -99.9 -99.99 -9.99
2019/08/17 19:00 EDT    0.68   1.15 -999 -999 -999 -99.9 -99.9 -999.9 -9.9 -9.999 -99.9 -99.99 -9.99
2019/08/17 19:06 EDT    0.64   1.12 -999 -999 -999 -99.9 -99.9 -999.9 -9.9 -9.999 -99.9 -99.99 -9.99
2019/08/17 19:12 EDT    0.61   1.12 -999 -999 -999 -99.9 -99.9 -999.9 -9.9 -9.999 -99.9 -99.99 -9.99
2019/08/17 19:18 EDT    0.59   1.11 -999 -999 -999 -99.9 -99.9 -999.9 -9.9 -9.999 -99.9 -99.99 -9.99
2019/08/17 19:24 EDT    0.58   1.11 -999 -999 -999 -99.9 -99.9 -999.9 -9.9 -9.999 -99.9 -99.99 -9.99
2019/08/17 19:30 EDT    0.58   1.11 -999 -999 -999 -99.9 -99.9 -999.9 -9.9 -9.999 -99.9 -99.99 -9.99
2019/08/17 19:36 EDT    0.59   1.10 -999 -999 -999 -99.9 -99.9 -999.9 -9.9 -9.999 -99.9 -99.99 -9.99
2019/08/17 19:42 EDT    0.61   1.09 -999 -999 -999 -99.9 -99.9 -999.9 -9.9 -9.999 -99.9 -99.99 -9.99
2019/08/17 19:48 EDT    0.64   1.10 -999 -999 -999 -99.9 -99.9 -999.9 -9.9 -9.999 -99.9 -99.99 -9.99
2019/08/17 19:54 EDT    0.67   1.12 -999 -999 -999 -99.9 -99.9 -999.9 -9.9 -9.999 -99.9 -99.99 -9.99
2019/08/17 20:00 EDT    0.72   1.14 -999 -999 -999 -99.9 -99.9 -999.9 -9.9 -9.999 -99.9 -99.99 -9.99
2019/08/17 20:06 EDT    0.77   1.20 -999 -999 -999 -99.9 -99.9 -999.9 -9.9 -9.999 -99.9 -99.99 -9.99
2019/08/17 20:12 EDT    0.84   1.27 -999 -999 -999 -99.9 -99.9 -999.9 -9.9 -9.999 -99.9 -99.99 -9.99
2019/08/17 20:18 EDT    0.91   1.34 -999 -999 -999 -99.9 -99.9 -999.9 -9.9 -9.999 -99.9 -99.99 -9.99
2019/08/17 20:24 EDT    0.99   1.43 -999 -999 -999 -99.9 -99.9 -999.9 -9.9 -9.999 -99.9 -99.99 -9.99
2019/08/17 20:30 EDT    1.08   1.52 -999 -999 -999 -99.9 -99.9 -999.9 -9.9 -9.999 -99.9 -99.99 -9.99
2019/08/17 20:36 EDT    1.18   1.62 -999 -999 -999 -99.9 -99.9 -999.9 -9.9 -9.999 -99.9 -99.99 -9.99
2019/08/17 20:42 EDT    1.28   1.74 -999 -999 -999 -99.9 -99.9 -999.9 -9.9 -9.999 -99.9 -99.99 -9.99
2019/08/17 20:48 EDT    1.39   1.86 -999 -999 -999 -99.9 -99.9 -999.9 -9.9 -9.999 -99.9 -99.99 -9.99
2019/08/17 20:54 EDT    1.51   1.99 -999 -999 -999 -99.9 -99.9 -999.9 -9.9 -9.999 -99.9 -99.99 -9.99
2019/08/17 21:00 EDT    1.63   2.11 -999 -999 -999 -99.9 -99.9 -999.9 -9.9 -9.999 -99.9 -99.99 -9.99
2019/08/17 21:06 EDT    1.75   2.23 -999 -999 -999 -99.9 -99.9 -999.9 -9.9 -9.999 -99.9 -99.99 -9.99
2019/08/17 21:12 EDT    1.88   2.35 -999 -999 -999 -99.9 -99.9 -999.9 -9.9 -9.999 -99.9 -99.99 -9.99
2019/08/17 21:18 EDT    2.01   2.45 -999 -999 -999 -99.9 -99.9 -999.9 -9.9 -9.999 -99.9 -99.99 -9.99
2019/08/17 21:24 EDT    2.15   2.56 -999 -999 -999 -99.9 -99.9 -999.9 -9.9 -9.999 -99.9 -99.99 -9.99
2019/08/17 21:30 EDT    2.29   2.69 -999 -999 -999 -99.9 -99.9 -999.9 -9.9 -9.999 -99.9 -99.99 -9.99
2019/08/17 21:36 EDT    2.42   2.82 -999 -999 -999 -99.9 -99.9 -999.9 -9.9 -9.999 -99.9 -99.99 -9.99
2019/08/17 21:42 EDT    2.56   2.93 -999 -999 -999 -99.9 -99.9 -999.9 -9.9 -9.999 -99.9 -99.99 -9.99
2019/08/17 21:48 EDT    2.71   3.05 -999 -999 -999 -99.9 -99.9 -999.9 -9.9 -9.999 -99.9 -99.99 -9.99
2019/08/17 21:54 EDT    2.85   3.18 -999 -999 -999 -99.9 -99.9 -999.9 -9.9 -9.999 -99.9 -99.99 -9.99
2019/08/17 22:00 EDT    2.99   3.32 -999 -999 -999 -99.9 -99.9 -999.9 -9.9 -9.999 -99.9 -99.99 -9.99
2019/08/17 22:06 EDT    3.13   3.49 -999 -999 -999 -99.9 -99.9 -999.9 -9.9 -9.999 -99.9 -99.99 -9.99
2019/08/17 22:12 EDT    3.27   3.66 -999 -999 -999 -99.9 -99.9 -999.9 -9.9 -9.999 -99.9 -99.99 -9.99
2019/08/17 22:18 EDT    3.41   3.83 -999 -999 -999 -99.9 -99.9 -999.9 -9.9 -9.999 -99.9 -99.99 -9.99
2019/08/17 22:24 EDT    3.55   3.98 -999 -999 -999 -99.9 -99.9 -999.9 -9.9 -9.999 -99.9 -99.99 -9.99
2019/08/17 22:30 EDT    3.69   4.11 -999 -999 -999 -99.9 -99.9 -999.9 -9.9 -9.999 -99.9 -99.99 -9.99
2019/08/17 22:36 EDT    3.82   4.25 -999 -999 -999 -99.9 -99.9 -999.9 -9.9 -9.999 -99.9 -99.99 -9.99
2019/08/17 22:42 EDT    3.96   4.38 -999 -999 -999 -99.9 -99.9 -999.9 -9.9 -9.999 -99.9 -99.99 -9.99
2019/08/17 22:48 EDT    4.09   4.50 -999 -999 -999 -99.9 -99.9 -999.9 -9.9 -9.999 -99.9 -99.99 -9.99
2019/08/17 22:54 EDT    4.22   4.61 -999 -999 -999 -99.9 -99.9 -999.9 -9.9 -9.999 -99.9 -99.99 -9.99
2019/08/17 23:00 EDT    4.35   4.73 -999 -999 -999 -99.9 -99.9 -999.9 -9.9 -9.999 -99.9 -99.99 -9.99
2019/08/17 23:06 EDT    4.48   4.88 -999 -999 -999 -99.9 -99.9 -999.9 -9.9 -9.999 -99.9 -99.99 -9.99
2019/08/17 23:12 EDT    4.61   5.03 -999 -999 -999 -99.9 -99.9 -999.9 -9.9 -9.999 -99.9 -99.99 -9.99
2019/08/17 23:18 EDT    4.73   5.16 -999 -999 -999 -99.9 -99.9 -999.9 -9.9 -9.999 -99.9 -99.99 -9.99
2019/08/17 23:24 EDT    4.85   5.28 -999 -999 -999 -99.9 -99.9 -999.9 -9.9 -9.999 -99.9 -99.99 -9.99
2019/08/17 23:30 EDT    4.97   5.39 -999 -999 -999 -99.9 -99.9 -999.9 -9.9 -9.999 -99.9 -99.99 -9.99
2019/08/17 23:36 EDT    5.09   5.49 -999 -999 -999 -99.9 -99.9 -999.9 -9.9 -9.999 -99.9 -99.99 -9.99
2019/08/17 23:42 EDT    5.21   5.58 -999 -999 -999 -99.9 -99.9 -999.9 -9.9 -9.999 -99.9 -99.99 -9.99
2019/08/17 23:48 EDT    5.32   5.68 -999 -999 -999 -99.9 -99.9 -999.9 -9.9 -9.999 -99.9 -99.99 -9.99
2019/08/17 23:54 EDT    5.43   5.77 -999 -999 -999 -99.9 -99.9 -999.9 -9.9 -9.999 -99.9 -99.99 -9.99
2019/08/18 00:00 EDT    5.53   5.90 -999 -999 -999 -99.9 -99.9 -999.9 -9.9 -9.999 -99.9 -99.99 -9.99
2019/08/18 00:06 EDT    5.64   6.04 -999 -999 -999 -99.9 -99.9 -999.9 -9.9 -9.999 -99.9 -99.99 -9.99
2019/08/18 00:12 EDT    5.74   6.14 -999 -999 -999 -99.9 -99.9 -999.9 -9.9 -9.999 -99.9 -99.99 -9.99
2019/08/18 00:18 EDT    5.83   6.25 -999 -999 -999 -99.9 -99.9 -999.9 -9.9 -9.999 -99.9 -99.99 -9.99
2019/08/18 00:24 EDT    5.92   6.38 -999 -999 -999 -99.9 -99.9 -999.9 -9.9 -9.999 -99.9 -99.99 -9.99
2019/08/18 00:30 EDT    6.01   6.51 -999 -999 -999 -99.9 -99.9 -999.9 -9.9 -9.999 -99.9 -99.99 -9.99
2019/08/18 00:36 EDT    6.09   6.61 -999 -999 -999 -99.9 -99.9 -999.9 -9.9 -9.999 -99.9 -99.99 -9.99
2019/08/18 00:42 EDT    6.16   6.68 -999 -999 -999 -99.9 -99.9 -999.9 -9.9 -9.999 -99.9 -99.99 -9.99
2019/08/18 00:48 EDT    6.23   6.75 -999 -999 -999 -99.9 -99.9 -999.9 -9.9 -9.999 -99.9 -99.99 -9.99
2019/08/18 00:54 EDT    6.29   6.81 -999 -999 -999 -99.9 -99.9 -999.9 -9.9 -9.999 -99.9 -99.99 -9.99
2019/08/18 01:00 EDT    6.34   6.86 -999 -999 -999 -99.9 -99.9 -999.9 -9.9 -9.999 -99.9 -99.99 -9.99
2019/08/18 01:06 EDT    6.39   6.89 -999 -999 -999 -99.9 -99.9 -999.9 -9.9 -9.999 -99.9 -99.99 -9.99
2019/08/18 01:12 EDT    6.43   6.93 -999 -999 -999 -99.9 -99.9 -999.9 -9.9 -9.999 -99.9 -99.99 -9.99
2019/08/18 01:18 EDT    6.46   7.01 -999 -999 -999 -99.9 -99.9 -999.9 -9.9 -9.999 -99.9 -99.99 -9.99
2019/08/18 01:24 EDT    6.48   7.09 -999 -999 -999 -99.9 -99.9 -999.9 -9.9 -9.999 -99.9 -99.99 -9.99
2019/08/18 01:30 EDT    6.49   7.11 -999 -999 -999 -99.9 -99.9 -999.9 -9.9 -9.999 -99.9 -99.99 -9.99
2019/08/18 01:36 EDT    6.49   7.07 -999 -999 -999 -99.9 -99.9 -999.9 -9.9 -9.999 -99.9 -99.99 -9.99
2019/08/18 01:42 EDT    6.48   7.05 -999 -999 -999 -99.9 -99.9 -999.9 -9.9 -9.999 -99.9 -99.99 -9.99
2019/08/18 01:48 EDT    6.47   7.07 -999 -999 -999 -99.9 -99.9 -999.9 -9.9 -9.999 -99.9 -99.99 -9.99
2019/08/18 01:54 EDT    6.44   7.07 -999 -999 -999 -99.9 -99.9 -999.9 -9.9 -9.999 -99.9 -99.99 -9.99
2019/08/18 02:00 EDT    6.40   7.01 -999 -999 -999 -99.9 -99.9 -999.9 -9.9 -9.999 -99.9 -99.99 -9.99
2019/08/18 02:06 EDT    6.36   6.93 -999 -999 -999 -99.9 -99.9 -999.9 -9.9 -9.999 -99.9 -99.99 -9.99
2019/08/18 02:12 EDT    6.30   6.86 -999 -999 -999 -99.9 -99.9 -999.9 -9.9 -9.999 -99.9 -99.99 -9.99
2019/08/18 02:18 EDT    6.24   6.81 -999 -999 -999 -99.9 -99.9 -999.9 -9.9 -9.999 -99.9 -99.99 -9.99
2019/08/18 02:24 EDT    6.16   6.76 -999 -999 -999 -99.9 -99.9 -999.9 -9.9 -9.999 -99.9 -99.99 -9.99
2019/08/18 02:30 EDT    6.08   6.70 -999 -999 -999 -99.9 -99.9 -999.9 -9.9 -9.999 -99.9 -99.99 -9.99
2019/08/18 02:36 EDT    5.99   6.60 -999 -999 -999 -99.9 -99.9 -999.9 -9.9 -9.999 -99.9 -99.99 -9.99
2019/08/18 02:42 EDT    5.89   6.47 -999 -999 -999 -99.9 -99.9 -999.9 -9.9 -9.999 -99.9 -99.99 -9.99
2019/08/18 02:48 EDT    5.79   6.36 -999 -999 -999 -99.9 -99.9 -999.9 -9.9 -9.999 -99.9 -99.99 -9.99
2019/08/18 02:54 EDT    5.68   6.27 -999 -999 -999 -99.9 -99.9 -999.9 -9.9 -9.999 -99.9 -99.99 -9.99
2019/08/18 03:00 EDT    5.56   6.18 -999 -999 -999 -99.9 -99.9 -999.9 -9.9 -9.999 -99.9 -99.99 -9.99
2019/08/18 03:06 EDT    5.43   6.07 -999 -999 -999 -99.9 -99.9 -999.9 -9.9 -9.999 -99.9 -99.99 -9.99
2019/08/18 03:12 EDT    5.30   5.91 -999 -999 -999 -99.9 -99.9 -999.9 -9.9 -9.999 -99.9 -99.99 -9.99
2019/08/18 03:18 EDT    5.17   5.78 -999 -999 -999 -99.9 -99.9 -999.9 -9.9 -9.999 -99.9 -99.99 -9.99
2019/08/18 03:24 EDT    5.03   5.65 -999 -999 -999 -99.9 -99.9 -999.9 -9.9 -9.999 -99.9 -99.99 -9.99
2019/08/18 03:30 EDT    4.89   5.52 -999 -999 -999 -99.9 -99.9 -999.9 -9.9 -9.999 -99.9 -99.99 -9.99
2019/08/18 03:36 EDT    4.75   5.35 -999 -999 -999 -99.9 -99.9 -999.9 -9.9 -9.999 -99.9 -99.99 -9.99
2019/08/18 03:42 EDT    4.61   5.19 -999 -999 -999 -99.9 -99.9 -999.9 -9.9 -9.999 -99.9 -99.99 -9.99
2019/08/18 03:48 EDT    4.46   5.02 -999 -999 -999 -99.9 -99.9 -999.9 -9.9 -9.999 -99.9 -99.99 -9.99
2019/08/18 03:54 EDT    4.31   4.86 -999 -999 -999 -99.9 -99.9 -999.9 -9.9 -9.999 -99.9 -99.99 -9.99
2019/08/18 04:00 EDT    4.17   4.73 -999 -999 -999 -99.9 -99.9 -999.9 -9.9 -9.999 -99.9 -99.99 -9.99
2019/08/18 04:06 EDT    4.02   4.63 -999 -999 -999 -99.9 -99.9 -999.9 -9.9 -9.999 -99.9 -99.99 -9.99
2019/08/18 04:12 EDT    3.87   4.53 -999 -999 -999 -99.9 -99.9 -999.9 -9.9 -9.999 -99.9 -99.99 -9.99
2019/08/18 04:18 EDT    3.73   4.43 -999 -999 -999 -99.9 -99.9 -999.9 -9.9 -9.999 -99.9 -99.99 -9.99
2019/08/18 04:24 EDT    3.58   4.32 -999 -999 -999 -99.9 -99.9 -999.9 -9.9 -9.999 -99.9 -99.99 -9.99
2019/08/18 04:30 EDT    3.44   4.19 -999 -999 -999 -99.9 -99.9 -999.9 -9.9 -9.999 -99.9 -99.99 -9.99
2019/08/18 04:36 EDT    3.30   4.03 -999 -999 -999 -99.9 -99.9 -999.9 -9.9 -9.999 -99.9 -99.99 -9.99
2019/08/18 04:42 EDT    3.15   3.87 -999 -999 -999 -99.9 -99.9 -999.9 -9.9 -9.999 -99.9 -99.99 -9.99
2019/08/18 04:48 EDT    3.01   3.67 -999 -999 -999 -99.9 -99.9 -999.9 -9.9 -9.999 -99.9 -99.99 -9.99
2019/08/18 04:54 EDT    2.88   3.48 -999 -999 -999 -99.9 -99.9 -999.9 -9.9 -9.999 -99.9 -99.99 -9.99
2019/08/18 05:00 EDT    2.74   3.33 -999 -999 -999 -99.9 -99.9 -999.9 -9.9 -9.999 -99.9 -99.99 -9.99
2019/08/18 05:06 EDT    2.61   3.19 -999 -999 -999 -99.9 -99.9 -999.9 -9.9 -9.999 -99.9 -99.99 -9.99
2019/08/18 05:12 EDT    2.48   3.06 -999 -999 -999 -99.9 -99.9 -999.9 -9.9 -9.999 -99.9 -99.99 -9.99
2019/08/18 05:18 EDT    2.35   2.94 -999 -999 -999 -99.9 -99.9 -999.9 -9.9 -9.999 -99.9 -99.99 -9.99
2019/08/18 05:24 EDT    2.22   2.84 -999 -999 -999 -99.9 -99.9 -999.9 -9.9 -9.999 -99.9 -99.99 -9.99
2019/08/18 05:30 EDT    2.10   2.75 -999 -999 -999 -99.9 -99.9 -999.9 -9.9 -9.999 -99.9 -99.99 -9.99
2019/08/18 05:36 EDT    1.97   2.66 -999 -999 -999 -99.9 -99.9 -999.9 -9.9 -9.999 -99.9 -99.99 -9.99
2019/08/18 05:42 EDT    1.85   2.57 -999 -999 -999 -99.9 -99.9 -999.9 -9.9 -9.999 -99.9 -99.99 -9.99
2019/08/18 05:48 EDT    1.74   2.44 -999 -999 -999 -99.9 -99.9 -999.9 -9.9 -9.999 -99.9 -99.99 -9.99
2019/08/18 05:54 EDT    1.62   2.30 -999 -999 -999 -99.9 -99.9 -999.9 -9.9 -9.999 -99.9 -99.99 -9.99
2019/08/18 06:00 EDT    1.51   2.15 -999 -999 -999 -99.9 -99.9 -999.9 -9.9 -9.999 -99.9 -99.99 -9.99
2019/08/18 06:06 EDT    1.40   2.00 -999 -999 -999 -99.9 -99.9 -999.9 -9.9 -9.999 -99.9 -99.99 -9.99
2019/08/18 06:12 EDT    1.30   1.86 -999 -999 -999 -99.9 -99.9 -999.9 -9.9 -9.999 -99.9 -99.99 -9.99
2019/08/18 06:18 EDT    1.19   1.74 -999 -999 -999 -99.9 -99.9 -999.9 -9.9 -9.999 -99.9 -99.99 -9.99
2019/08/18 06:24 EDT    1.10   1.63 -999 -999 -999 -99.9 -99.9 -999.9 -9.9 -9.999 -99.9 -99.99 -9.99
2019/08/18 06:30 EDT    1.00   1.54 -999 -999 -999 -99.9 -99.9 -999.9 -9.9 -9.999 -99.9 -99.99 -9.99
2019/08/18 06:36 EDT    0.92   1.43 -999 -999 -999 -99.9 -99.9 -999.9 -9.9 -9.999 -99.9 -99.99 -9.99
2019/08/18 06:42 EDT    0.83   1.34 -999 -999 -999 -99.9 -99.9 -999.9 -9.9 -9.999 -99.9 -99.99 -9.99
2019/08/18 06:48 EDT    0.75   1.25 -999 -999 -999 -99.9 -99.9 -999.9 -9.9 -9.999 -99.9 -99.99 -9.99
2019/08/18 06:54 EDT    0.68   1.18 -999 -999 -999 -99.9 -99.9 -999.9 -9.9 -9.999 -99.9 -99.99 -9.99
2019/08/18 07:00 EDT    0.62   1.11 -999 -999 -999 -99.9 -99.9 -999.9 -9.9 -9.999 -99.9 -99.99 -9.99
2019/08/18 07:06 EDT    0.56   1.03 -999 -999 -999 -99.9 -99.9 -999.9 -9.9 -9.999 -99.9 -99.99 -9.99
2019/08/18 07:12 EDT    0.51   0.96 -999 -999 -999 -99.9 -99.9 -999.9 -9.9 -9.999 -99.9 -99.99 -9.99
2019/08/18 07:18 EDT    0.46   0.91 -999 -999 -999 -99.9 -99.9 -999.9 -9.9 -9.999 -99.9 -99.99 -9.99
2019/08/18 07:24 EDT    0.43   0.83 -999 -999 -999 -99.9 -99.9 -999.9 -9.9 -9.999 -99.9 -99.99 -9.99
2019/08/18 07:30 EDT    0.40   0.79 -999 -999 -999 -99.9 -99.9 -999.9 -9.9 -9.999 -99.9 -99.99 -9.99
2019/08/18 07:36 EDT    0.38   0.75 -999 -999 -999 -99.9 -99.9 -999.9 -9.9 -9.999 -99.9 -99.99 -9.99
2019/08/18 07:42 EDT    0.37   0.70 -999 -999 -999 -99.9 -99.9 -999.9 -9.9 -9.999 -99.9 -99.99 -9.99
2019/08/18 07:48 EDT    0.37   0.62 -999 -999 -999 -99.9 -99.9 -999.9 -9.9 -9.999 -99.9 -99.99 -9.99
2019/08/18 07:54 EDT    0.38   0.60 -999 -999 -999 -99.9 -99.9 -999.9 -9.9 -9.999 -99.9 -99.99 -9.99
2019/08/18 08:00 EDT    0.40   0.61 -999 -999 -999 -99.9 -99.9 -999.9 -9.9 -9.999 -99.9 -99.99 -9.99
2019/08/18 08:06 EDT    0.43   0.64 -999 -999 -999 -99.9 -99.9 -999.9 -9.9 -9.999 -99.9 -99.99 -9.99
2019/08/18 08:12 EDT    0.46   0.70 -999 -999 -999 -99.9 -99.9 -999.9 -9.9 -9.999 -99.9 -99.99 -9.99
2019/08/18 08:18 EDT    0.51   0.78 -999 -999 -999 -99.9 -99.9 -999.9 -9.9 -9.999 -99.9 -99.99 -9.99
2019/08/18 08:24 EDT    0.57   0.86 -999 -999 -999 -99.9 -99.9 -999.9 -9.9 -9.999 -99.9 -99.99 -9.99
2019/08/18 08:30 EDT    0.63   0.95 -999 -999 -999 -99.9 -99.9 -999.9 -9.9 -9.999 -99.9 -99.99 -9.99
2019/08/18 08:36 EDT    0.71   1.05 -999 -999 -999 -99.9 -99.9 -999.9 -9.9 -9.999 -99.9 -99.99 -9.99
2019/08/18 08:42 EDT    0.79   1.14 -999 -999 -999 -99.9 -99.9 -999.9 -9.9 -9.999 -99.9 -99.99 -9.99
2019/08/18 08:48 EDT    0.88   1.24 -999 -999 -999 -99.9 -99.9 -999.9 -9.9 -9.999 -99.9 -99.99 -9.99
2019/08/18 08:54 EDT    0.98   1.34 -999 -999 -999 -99.9 -99.9 -999.9 -9.9 -9.999 -99.9 -99.99 -9.99
2019/08/18 09:00 EDT    1.09   1.44 -999 -999 -999 -99.9 -99.9 -999.9 -9.9 -9.999 -99.9 -99.99 -9.99
2019/08/18 09:06 EDT    1.20   1.54 -999 -999 -999 -99.9 -99.9 -999.9 -9.9 -9.999 -99.9 -99.99 -9.99
2019/08/18 09:12 EDT    1.32   1.64 -999 -999 -999 -99.9 -99.9 -999.9 -9.9 -9.999 -99.9 -99.99 -9.99
2019/08/18 09:18 EDT    1.44   1.76 -999 -999 -999 -99.9 -99.9 -999.9 -9.9 -9.999 -99.9 -99.99 -9.99
2019/08/18 09:24 EDT    1.57   1.87 -999 -999 -999 -99.9 -99.9 -999.9 -9.9 -9.999 -99.9 -99.99 -9.99
2019/08/18 09:30 EDT    1.71   2.00 -999 -999 -999 -99.9 -99.9 -999.9 -9.9 -9.999 -99.9 -99.99 -9.99
2019/08/18 09:36 EDT    1.84 -99.99 -999 -999 -999 -99.9 -99.9 -999.9 -9.9 -9.999 -99.9 -99.99 -9.99
2019/08/18 09:42 EDT    1.98 -99.99 -999 -999 -999 -99.9 -99.9 -999.9 -9.9 -9.999 -99.9 -99.99 -9.99
2019/08/18 09:48 EDT    2.13 -99.99 -999 -999 -999 -99.9 -99.9 -999.9 -9.9 -9.999 -99.9 -99.99 -9.99
2019/08/18 09:54 EDT    2.27 -99.99 -999 -999 -999 -99.9 -99.9 -999.9 -9.9 -9.999 -99.9 -99.99 -9.99
2019/08/18 10:00 EDT    2.42 -99.99 -999 -999 -999 -99.9 -99.9 -999.9 -9.9 -9.999 -99.9 -99.99 -9.99
2019/08/18 10:06 EDT    2.57 -99.99 -999 -999 -999 -99.9 -99.9 -999.9 -9.9 -9.999 -99.9 -99.99 -9.99
2019/08/18 10:12 EDT    2.71 -99.99 -999 -999 -999 -99.9 -99.9 -999.9 -9.9 -9.999 -99.9 -99.99 -9.99
2019/08/18 10:18 EDT    2.86 -99.99 -999 -999 -999 -99.9 -99.9 -999.9 -9.9 -9.999 -99.9 -99.99 -9.99
2019/08/18 10:24 EDT    3.01 -99.99 -999 -999 -999 -99.9 -99.9 -999.9 -9.9 -9.999 -99.9 -99.99 -9.99
2019/08/18 10:30 EDT    3.15 -99.99 -999 -999 -999 -99.9 -99.9 -999.9 -9.9 -9.999 -99.9 -99.99 -9.99
2019/08/18 10:36 EDT    3.30 -99.99 -999 -999 -999 -99.9 -99.9 -999.9 -9.9 -9.999 -99.9 -99.99 -9.99
2019/08/18 10:42 EDT    3.44 -99.99 -999 -999 -999 -99.9 -99.9 -999.9 -9.9 -9.999 -99.9 -99.99 -9.99
2019/08/18 10:48 EDT    3.59 -99.99 -999 -999 -999 -99.9 -99.9 -999.9 -9.9 -9.999 -99.9 -99.99 -9.99
2019/08/18 10:54 EDT    3.73 -99.99 -999 -999 -999 -99.9 -99.9 -999.9 -9.9 -9.999 -99.9 -99.99 -9.99
2019/08/18 11:00 EDT    3.87 -99.99 -999 -999 -999 -99.9 -99.9 -999.9 -9.9 -9.999 -99.9 -99.99 -9.99
2019/08/18 11:06 EDT    4.00 -99.99 -999 -999 -999 -99.9 -99.9 -999.9 -9.9 -9.999 -99.9 -99.99 -9.99
2019/08/18 11:12 EDT    4.14 -99.99 -999 -999 -999 -99.9 -99.9 -999.9 -9.9 -9.999 -99.9 -99.99 -9.99
2019/08/18 11:18 EDT    4.27 -99.99 -999 -999 -999 -99.9 -99.9 -999.9 -9.9 -9.999 -99.9 -99.99 -9.99
2019/08/18 11:24 EDT    4.40 -99.99 -999 -999 -999 -99.9 -99.9 -999.9 -9.9 -9.999 -99.9 -99.99 -9.99
2019/08/18 11:30 EDT    4.53 -99.99 -999 -999 -999 -99.9 -99.9 -999.9 -9.9 -9.999 -99.9 -99.99 -9.99
2019/08/18 11:36 EDT    4.66 -99.99 -999 -999 -999 -99.9 -99.9 -999.9 -9.9 -9.999 -99.9 -99.99 -9.99
2019/08/18 11:42 EDT    4.78 -99.99 -999 -999 -999 -99.9 -99.9 -999.9 -9.9 -9.999 -99.9 -99.99 -9.99
2019/08/18 11:48 EDT    4.90 -99.99 -999 -999 -999 -99.9 -99.9 -999.9 -9.9 -9.999 -99.9 -99.99 -9.99
2019/08/18 11:54 EDT    5.02 -99.99 -999 -999 -999 -99.9 -99.9 -999.9 -9.9 -9.999 -99.9 -99.99 -9.99
2019/08/18 12:00 EDT    5.14 -99.99 -999 -999 -999 -99.9 -99.9 -999.9 -9.9 -9.999 -99.9 -99.99 -9.99
2019/08/18 12:06 EDT    5.26 -99.99 -999 -999 -999 -99.9 -99.9 -999.9 -9.9 -9.999 -99.9 -99.99 -9.99
2019/08/18 12:12 EDT    5.37 -99.99 -999 -999 -999 -99.9 -99.9 -999.9 -9.9 -9.999 -99.9 -99.99 -9.99
2019/08/18 12:18 EDT    5.48 -99.99 -999 -999 -999 -99.9 -99.9 -999.9 -9.9 -9.999 -99.9 -99.99 -9.99
2019/08/18 12:24 EDT    5.58 -99.99 -999 -999 -999 -99.9 -99.9 -999.9 -9.9 -9.999 -99.9 -99.99 -9.99
2019/08/18 12:30 EDT    5.68 -99.99 -999 -999 -999 -99.9 -99.9 -999.9 -9.9 -9.999 -99.9 -99.99 -9.99
2019/08/18 12:36 EDT    5.78 -99.99 -999 -999 -999 -99.9 -99.9 -999.9 -9.9 -9.999 -99.9 -99.99 -9.99
2019/08/18 12:42 EDT    5.87 -99.99 -999 -999 -999 -99.9 -99.9 -999.9 -9.9 -9.999 -99.9 -99.99 -9.99
2019/08/18 12:48 EDT    5.96 -99.99 -999 -999 -999 -99.9 -99.9 -999.9 -9.9 -9.999 -99.9 -99.99 -9.99
2019/08/18 12:54 EDT    6.05 -99.99    7  193    8  77.0  75.6 1015.7 -9.9 -9.999 -99.9 -99.99 -9.99
2019/08/18 13:00 EDT    6.12 -99.99    7  192    8  77.0  75.6 1015.6 -9.9 -9.999 -99.9 -99.99 -9.99
2019/08/18 13:06 EDT    6.20 -99.99    7  192    7  77.0  75.4 1015.5 -9.9 -9.999 -99.9 -99.99 -9.99
2019/08/18 13:12 EDT    6.26 -99.99    8  186    8  76.6  75.4 1015.5 -9.9 -9.999 -99.9 -99.99 -9.99
2019/08/18 13:18 EDT    6.32 -99.99    8  186    9  76.6  75.6 1015.5 -9.9 -9.999 -99.9 -99.99 -9.99
2019/08/18 13:24 EDT    6.37 -99.99    9  186   10  77.0  75.6 1015.6 -9.9 -9.999 -99.9 -99.99 -9.99
2019/08/18 13:30 EDT    6.42 -99.99    9  188   10  77.2  75.6 1015.7 -9.9 -9.999 -99.9 -99.99 -9.99
2019/08/18 13:36 EDT    6.45 -99.99    9  189   10  77.4  75.6 1015.8 -9.9 -9.999 -99.9 -99.99 -9.99
2019/08/18 13:42 EDT    6.48 -99.99    8  189   10  77.5  75.6 1015.7 -9.9 -9.999 -99.9 -99.99 -9.99
2019/08/18 13:48 EDT    6.50 -99.99    7  189    9  77.7  75.6 1015.7 -9.9 -9.999 -99.9 -99.99 -9.99
2019/08/18 13:54 EDT    6.51 -99.99    8  205    9  78.3  75.6 1015.8 -9.9 -9.999 -99.9 -99.99 -9.99
2019/08/18 14:00 EDT    6.51 -99.99    7  197    8  78.6  75.6 1015.7 -9.9 -9.999 -99.9 -99.99 -9.99
2019/08/18 14:06 EDT    6.51 -99.99    8  191    9  78.4  75.6 1015.7 -9.9 -9.999 -99.9 -99.99 -9.99
2019/08/18 14:12 EDT    6.49 -99.99    7  190    8  78.3  75.6 1015.6 -9.9 -9.999 -99.9 -99.99 -9.99
2019/08/18 14:18 EDT    6.46 -99.99    7  187    8  78.1  75.6 1015.4 -9.9 -9.999 -99.9 -99.99 -9.99
2019/08/18 14:24 EDT    6.43 -99.99    7  183    8  78.4  75.6 1015.3 -9.9 -9.999 -99.9 -99.99 -9.99
2019/08/18 14:30 EDT    6.38 -99.99    8  182   10  79.0  75.6 1015.3 -9.9 -9.999 -99.9 -99.99 -9.99
2019/08/18 14:36 EDT    6.33 -99.99    8  189    9  79.3  75.6 1015.3 -9.9 -9.999 -99.9 -99.99 -9.99
2019/08/18 14:42 EDT    6.26 -99.99    8  185    9  79.0  75.7 1015.2 -9.9 -9.999 -99.9 -99.99 -9.99
2019/08/18 14:48 EDT    6.19 -99.99    8  185   10  79.5  75.7 1015.0 -9.9 -9.999 -99.9 -99.99 -9.99
2019/08/18 14:54 EDT    6.11 -99.99    9  192   10  80.2  75.6 1014.9 -9.9 -9.999 -99.9 -99.99 -9.99
2019/08/18 15:00 EDT    6.02 -99.99    8  194   10  80.8  75.6 1015.0 -9.9 -9.999 -99.9 -99.99 -9.99
2019/08/18 15:06 EDT    5.92 -99.99    8  188    9  80.6  75.6 1015.0 -9.9 -9.999 -99.9 -99.99 -9.99
2019/08/18 15:12 EDT    5.82 -99.99    9  192   10  81.0  75.6 1015.0 -9.9 -9.999 -99.9 -99.99 -9.99
2019/08/18 15:18 EDT    5.71 -99.99    7  203   10  81.3  75.6 1015.0 -9.9 -9.999 -99.9 -99.99 -9.99
2019/08/18 15:24 EDT    5.59 -99.99    8  192    9  80.8  75.6 1015.0 -9.9 -9.999 -99.9 -99.99 -9.99
2019/08/18 15:30 EDT    5.47 -99.99    8  192    9  80.8  75.6 1014.9 -9.9 -9.999 -99.9 -99.99 -9.99
2019/08/18 15:36 EDT    5.35 -99.99    7  196    8  81.0  75.4 1014.9 -9.9 -9.999 -99.9 -99.99 -9.99
2019/08/18 15:42 EDT    5.22 -99.99    6  195    7  81.0  75.4 1014.9 -9.9 -9.999 -99.9 -99.99 -9.99
2019/08/18 15:48 EDT    5.08 -99.99    7  189    8  81.0  75.4 1014.8 -9.9 -9.999 -99.9 -99.99 -9.99
2019/08/18 15:54 EDT    4.95 -99.99    7  193    8  81.5  75.4 1014.8 -9.9 -9.999 -99.9 -99.99 -9.99
2019/08/18 16:00 EDT    4.81 -99.99    6  192    8  81.5  75.4 1014.6 -9.9 -9.999 -99.9 -99.99 -9.99
2019/08/18 16:06 EDT    4.67 -99.99    6  195    7  81.9  75.4 1014.5 -9.9 -9.999 -99.9 -99.99 -9.99
2019/08/18 16:12 EDT    4.52 -99.99    5  201    6  82.4  75.6 1014.3 -9.9 -9.999 -99.9 -99.99 -9.99
2019/08/18 16:18 EDT    4.38 -99.99    6  213    6  81.3  75.4 1014.4 -9.9 -9.999 -99.9 -99.99 -9.99
2019/08/18 16:24 EDT    4.24 -99.99    5  217    6  81.0  75.4 1014.5 -9.9 -9.999 -99.9 -99.99 -9.99
2019/08/18 16:30 EDT    4.10 -99.99    6  219    6  80.8  75.4 1014.6 -9.9 -9.999 -99.9 -99.99 -9.99
2019/08/18 16:36 EDT    3.95 -99.99    7  216    8  80.8  75.6 1014.7 -9.9 -9.999 -99.9 -99.99 -9.99
2019/08/18 16:42 EDT    3.81 -99.99    7  209    7  81.1  75.6 1014.8 -9.9 -9.999 -99.9 -99.99 -9.99
2019/08/18 16:48 EDT    3.67 -99.99    8  204    8  81.5  75.6 1014.7 -9.9 -9.999 -99.9 -99.99 -9.99
2019/08/18 16:54 EDT    3.53 -99.99    7  211    8  81.7  75.7 1014.7 -9.9 -9.999 -99.9 -99.99 -9.99
2019/08/18 17:00 EDT    3.40 -99.99    6  205    7  81.5  75.9 1014.7 -9.9 -9.999 -99.9 -99.99 -9.99
2019/08/18 17:06 EDT    3.26 -99.99    5  205    7  82.0  75.9 1014.6 -9.9 -9.999 -99.9 -99.99 -9.99
2019/08/18 17:12 EDT    3.13 -99.99    6  214    6  81.0  76.1 1014.5 -9.9 -9.999 -99.9 -99.99 -9.99
2019/08/18 17:18 EDT    3.00 -99.99    5  203    6  81.3  76.3 1014.4 -9.9 -9.999 -99.9 -99.99 -9.99
2019/08/18 17:24 EDT    2.87 -99.99    7  193    8  82.2  75.9 1014.4 -9.9 -9.999 -99.9 -99.99 -9.99
2019/08/18 17:30 EDT    2.74 -99.99    6  178    9  82.4  75.9 1014.3 -9.9 -9.999 -99.9 -99.99 -9.99
2019/08/18 17:36 EDT    2.61 -99.99    7  169    8  82.0  76.1 1014.4 -9.9 -9.999 -99.9 -99.99 -9.99
2019/08/18 17:42 EDT    2.49 -99.99    8  167   11  82.2  76.1 1014.3 -9.9 -9.999 -99.9 -99.99 -9.99
2019/08/18 17:48 EDT    2.37 -99.99   10  171   11  81.9  76.1 1014.3 -9.9 -9.999 -99.9 -99.99 -9.99
2019/08/18 17:54 EDT    2.25 -99.99    9  176   12  81.9  76.3 1014.3 -9.9 -9.999 -99.9 -99.99 -9.99
2019/08/18 18:00 EDT    2.14 -99.99    8  169   10  81.5  76.5 1014.2 -9.9 -9.999 -99.9 -99.99 -9.99
2019/08/18 18:06 EDT    2.02 -99.99    6  184    9  81.5  76.6 1014.3 -9.9 -9.999 -99.9 -99.99 -9.99
2019/08/18 18:12 EDT    1.91 -99.99    9  174   10  81.1  76.6 1014.3 -9.9 -9.999 -99.9 -99.99 -9.99
2019/08/18 18:18 EDT    1.80 -99.99    8  184   10  80.8  76.5 1014.3 -9.9 -9.999 -99.9 -99.99 -9.99
2019/08/18 18:24 EDT    1.70 -99.99    8  193   10  80.8  76.5 1014.5 -9.9 -9.999 -99.9 -99.99 -9.99
2019/08/18 18:30 EDT    1.60 -99.99    8  194   11  80.6  77.0 1014.6 -9.9 -9.999 -99.9 -99.99 -9.99
2019/08/18 18:36 EDT    1.50 -99.99    7  199    9  80.1  77.2 1014.6 -9.9 -9.999 -99.9 -99.99 -9.99
2019/08/18 18:42 EDT    1.40 -99.99    8  198    8  79.9  77.4 1014.5 -9.9 -9.999 -99.9 -99.99 -9.99
2019/08/18 18:48 EDT    1.31 -99.99    9  196    9  79.7  77.4 1014.4 -9.9 -9.999 -99.9 -99.99 -9.99
2019/08/18 18:54 EDT    1.22 -99.99    8  203    9  79.3  77.9 1014.4 -9.9 -9.999 -99.9 -99.99 -9.99
2019/08/18 19:00 EDT    1.14 -99.99    8  204    9  79.2  77.7 1014.3 -9.9 -9.999 -99.9 -99.99 -9.99
2019/08/18 19:06 EDT    1.06 -99.99    9  206   11  79.2  78.4 1014.3 -9.9 -9.999 -99.9 -99.99 -9.99
2019/08/18 19:12 EDT    0.99 -99.99   10  208   11  79.2  78.4 1014.4 -9.9 -9.999 -99.9 -99.99 -9.99
2019/08/18 19:18 EDT    0.92 -99.99    9  208   12  79.0  78.8 1014.4 -9.9 -9.999 -99.9 -99.99 -9.99
2019/08/18 19:24 EDT    0.86 -99.99   10  215   11  79.0  78.8 1014.3 -9.9 -9.999 -99.9 -99.99 -9.99
2019/08/18 19:30 EDT    0.81 -99.99   11  214   12  78.8  78.8 1014.2 -9.9 -9.999 -99.9 -99.99 -9.99
2019/08/18 19:36 EDT    0.76 -99.99   10  214   12  78.6  78.6 1014.1 -9.9 -9.999 -99.9 -99.99 -9.99
2019/08/18 19:42 EDT    0.72 -99.99    9  207   12  78.6  78.6 1014.0 -9.9 -9.999 -99.9 -99.99 -9.99
2019/08/18 19:48 EDT    0.68 -99.99    9  208   10  78.6  79.0 1014.2 -9.9 -9.999 -99.9 -99.99 -9.99
2019/08/18 19:54 EDT    0.66 -99.99    7  209    9  78.4  79.2 1014.4 -9.9 -9.999 -99.9 -99.99 -9.99
2019/08/18 20:00 EDT    0.64 -99.99    6  204    8  78.4  79.0 1014.4 -9.9 -9.999 -99.9 -99.99 -9.99
2019/08/18 20:06 EDT    0.64 -99.99    6  220    7  78.4  78.8 1014.6 -9.9 -9.999 -99.9 -99.99 -9.99
2019/08/18 20:12 EDT    0.64 -99.99 -999 -999 -999 -99.9 -99.9 -999.9 -9.9 -9.999 -99.9 -99.99 -9.99
2019/08/18 20:18 EDT    0.65 -99.99 -999 -999 -999 -99.9 -99.9 -999.9 -9.9 -9.999 -99.9 -99.99 -9.99

Revised: 08/08/2018
NOAA / National Ocean Service
Web site owner: Center for Operational Oceanographic Products and Services